Darstellungsparameter: Aktuell verwendete Einstellungen:
Skalierung der Graphiken ... ?
xyx+y,   Skalierungsfaktor:      Skalierung: Modus: x, Faktor: 1
Darstellungszeitraum ... ?
Vom - - bis: - -   Zeitraum: 22.02.2021 - 28.02.2021
Min/Max/Avg-Anzeige ... ?
Zeige MMA aktuell
Zeige MMA Monat
Zeige MMA alles
Zeige --A aktuell
Zeige --A Monat
Zeige --A alles
Keine MMA-Anzeige
MMA:
Keine MMA-Graphiken
MMA-Basis: 22.02.2021 - 28.02.2021
Quicknavigation für Darstellung... ?
Tage:      1T, 2T, 3T, 5T -1T -2T -3T -5T +1T +2T +3T +5T
Wochen: 1W, 2W, 3W -1W -2W -3W +1W +2W +3W
Monate: 1M, 3M, 6M -1M -3M -6M +1M +3M +6M
Jahre:    1J, 3J, 5J, 10J -1J -3J -5J -10J +1J +3J +5J +10J
Nutze für die Darstellung ... ?
Originaldaten oder Mittelwerte auf ...
Stundenbasis Tagesbasis Wochenbasis
Monatsbasis Jahresbasis      Datenbasis: Original-Daten
Darstellen als:
Statistik (Auto) Statistik J:M      Darstellung:
Zur Graphik,    zurück zur Übersicht aller Sensoren.
 
Tabellarische Datenbersicht: ?
 
Sensor: Nr:Datum:Temp:Feuchte:Taupunkt:
Aussen-T/F 1 22-02-2021 00:00:00 4.8 C 91 % 3.46 C
2 22-02-2021 00:05:00 4.7 C 90 % 3.2 C
3 22-02-2021 00:10:00 4.6 C 91 % 3.26 C
4 22-02-2021 00:15:00 4.4 C 90 % 2.91 C
5 22-02-2021 00:20:00 4.3 C 91 % 2.96 C
6 22-02-2021 00:25:00 4.2 C 90 % 2.71 C
7 22-02-2021 00:30:00 4.1 C 91 % 2.77 C
8 22-02-2021 00:35:00 4 C 91 % 2.67 C
9 22-02-2021 00:40:00 3.9 C 91 % 2.57 C
10 22-02-2021 00:45:00 3.8 C 91 % 2.47 C
11 22-02-2021 00:50:00 3.7 C 92 % 2.52 C
12 22-02-2021 00:55:00 3.7 C 92 % 2.52 C
13 22-02-2021 01:00:00 3.7 C 92 % 2.52 C
14 22-02-2021 01:05:00 3.7 C 92 % 2.52 C
15 22-02-2021 01:10:00 3.7 C 93 % 2.68 C
16 22-02-2021 01:15:00 3.6 C 92 % 2.42 C
17 22-02-2021 01:20:00 3.6 C 92 % 2.42 C
18 22-02-2021 01:25:00 3.4 C 92 % 2.23 C
19 22-02-2021 01:30:00 3.3 C 93 % 2.28 C
20 22-02-2021 01:35:00 3.4 C 93 % 2.38 C
21 22-02-2021 01:40:00 3.4 C 93 % 2.38 C
22 22-02-2021 01:45:00 3.5 C 93 % 2.48 C
23 22-02-2021 01:50:00 3.4 C 93 % 2.38 C
24 22-02-2021 01:55:00 3.4 C 93 % 2.38 C
25 22-02-2021 02:00:00 3.3 C 93 % 2.28 C
Sensor: Nr:Datum:Temp:Feuchte:Taupunkt:
Aussen-T/F 26 22-02-2021 02:05:00 3.1 C 93 % 2.08 C
27 22-02-2021 02:10:00 3.1 C 93 % 2.08 C
28 22-02-2021 02:15:00 3.1 C 93 % 2.08 C
29 22-02-2021 02:20:00 2.9 C 93 % 1.88 C
30 22-02-2021 02:25:00 2.8 C 93 % 1.78 C
31 22-02-2021 02:30:00 2.6 C 93 % 1.59 C
32 22-02-2021 02:35:00 2.4 C 93 % 1.39 C
33 22-02-2021 02:40:00 2.2 C 93 % 1.19 C
34 22-02-2021 02:45:00 2.2 C 93 % 1.19 C
35 22-02-2021 02:50:00 2.2 C 93 % 1.19 C
36 22-02-2021 02:55:00 2.2 C 94 % 1.34 C
37 22-02-2021 03:00:00 2.3 C 94 % 1.44 C
38 22-02-2021 03:05:00 2.2 C 94 % 1.34 C
39 22-02-2021 03:10:00 2.1 C 94 % 1.24 C
40 22-02-2021 03:15:00 2.1 C 94 % 1.24 C
41 22-02-2021 03:20:00 2.1 C 94 % 1.24 C
42 22-02-2021 03:25:00 1.9 C 94 % 1.04 C
43 22-02-2021 03:30:00 1.8 C 94 % 0.94 C
44 22-02-2021 03:35:00 1.7 C 94 % 0.84 C
45 22-02-2021 03:40:00 1.7 C 94 % 0.84 C
46 22-02-2021 03:45:00 1.7 C 94 % 0.84 C
47 22-02-2021 03:50:00 1.6 C 94 % 0.74 C
48 22-02-2021 03:55:00 1.4 C 94 % 0.54 C
49 22-02-2021 04:00:00 1.4 C 94 % 0.54 C
50 22-02-2021 04:05:00 1.3 C 94 % 0.44 C
Sensor: Nr:Datum:Temp:Feuchte:Taupunkt:
Aussen-T/F 51 22-02-2021 04:10:00 1.3 C 94 % 0.44 C
52 22-02-2021 04:15:00 1.2 C 94 % 0.34 C
53 22-02-2021 04:20:00 1.3 C 94 % 0.44 C
54 22-02-2021 04:25:00 1.3 C 95 % 0.59 C
55 22-02-2021 04:30:00 1.4 C 95 % 0.69 C
56 22-02-2021 04:35:00 1.4 C 95 % 0.69 C
57 22-02-2021 04:40:00 1.6 C 95 % 0.89 C
58 22-02-2021 04:45:00 1.6 C 95 % 0.89 C
59 22-02-2021 04:50:00 1.6 C 95 % 0.89 C
60 22-02-2021 04:55:00 1.5 C 95 % 0.79 C
61 22-02-2021 05:00:00 1.4 C 95 % 0.69 C
62 22-02-2021 05:05:00 1.4 C 95 % 0.69 C
63 22-02-2021 05:10:00 1.4 C 95 % 0.69 C
64 22-02-2021 05:15:00 1.4 C 95 % 0.69 C
65 22-02-2021 05:20:00 1.4 C 95 % 0.69 C
66 22-02-2021 05:25:00 1.3 C 95 % 0.59 C
67 22-02-2021 05:30:00 1.3 C 95 % 0.59 C
68 22-02-2021 05:35:00 1.3 C 95 % 0.59 C
69 22-02-2021 05:40:00 1.3 C 95 % 0.59 C
70 22-02-2021 05:45:00 1.5 C 95 % 0.79 C
71 22-02-2021 05:50:00 1.7 C 96 % 1.13 C
72 22-02-2021 05:55:00 1.8 C 96 % 1.23 C
73 22-02-2021 06:00:00 1.7 C 95 % 0.99 C
74 22-02-2021 06:05:00 1.6 C 95 % 0.89 C
75 22-02-2021 06:10:00 1.3 C 95 % 0.59 C
Sensor: Nr:Datum:Temp:Feuchte:Taupunkt:
Aussen-T/F 76 22-02-2021 06:15:00 1.1 C 95 % 0.39 C
77 22-02-2021 06:20:00 0.9 C 95 % 0.19 C
78 22-02-2021 06:25:00 0.9 C 95 % 0.19 C
79 22-02-2021 06:30:00 0.8 C 95 % 0.09 C
80 22-02-2021 06:35:00 0.8 C 95 % 0.09 C
81 22-02-2021 06:40:00 0.8 C 95 % 0.09 C
82 22-02-2021 06:45:00 0.9 C 95 % 0.19 C
83 22-02-2021 06:50:00 0.9 C 96 % 0.34 C
84 22-02-2021 06:55:00 1 C 96 % 0.44 C
85 22-02-2021 07:00:00 1 C 96 % 0.44 C
86 22-02-2021 07:05:00 1 C 96 % 0.44 C
87 22-02-2021 07:10:00 1.1 C 96 % 0.54 C
88 22-02-2021 07:15:00 1.2 C 96 % 0.63 C
89 22-02-2021 07:20:00 1.2 C 96 % 0.63 C
90 22-02-2021 07:25:00 1.2 C 96 % 0.63 C
91 22-02-2021 07:30:00 1.2 C 96 % 0.63 C
92 22-02-2021 07:35:00 1.3 C 96 % 0.73 C
93 22-02-2021 07:40:00 1.3 C 96 % 0.73 C
94 22-02-2021 07:45:00 1.4 C 96 % 0.83 C
95 22-02-2021 07:50:00 1.5 C 96 % 0.93 C
96 22-02-2021 07:55:00 1.6 C 96 % 1.03 C
97 22-02-2021 08:00:00 1.6 C 96 % 1.03 C
98 22-02-2021 08:05:00 1.6 C 96 % 1.03 C
99 22-02-2021 08:10:00 1.6 C 96 % 1.03 C
100 22-02-2021 08:15:00 1.7 C 96 % 1.13 C
Sensor: Nr:Datum:Temp:Feuchte:Taupunkt:
Aussen-T/F 101 22-02-2021 08:20:00 1.7 C 96 % 1.13 C
102 22-02-2021 08:25:00 1.8 C 96 % 1.23 C
103 22-02-2021 08:30:00 1.9 C 96 % 1.33 C
104 22-02-2021 08:35:00 2.1 C 96 % 1.53 C
105 22-02-2021 08:40:00 2.3 C 96 % 1.73 C
106 22-02-2021 08:45:00 2.4 C 96 % 1.83 C
107 22-02-2021 08:50:00 2.4 C 96 % 1.83 C
108 22-02-2021 08:55:00 2.5 C 96 % 1.93 C
109 22-02-2021 09:00:00 2.6 C 96 % 2.03 C
110 22-02-2021 09:05:00 2.6 C 96 % 2.03 C
111 22-02-2021 09:10:00 2.7 C 96 % 2.13 C
112 22-02-2021 09:15:00 2.8 C 96 % 2.23 C
113 22-02-2021 09:20:00 2.9 C 96 % 2.33 C
114 22-02-2021 09:25:00 3.1 C 96 % 2.53 C
115 22-02-2021 09:30:00 3.2 C 97 % 2.77 C
116 22-02-2021 09:35:00 3.3 C 96 % 2.72 C
117 22-02-2021 09:40:00 3.5 C 97 % 3.07 C
118 22-02-2021 09:45:00 3.7 C 97 % 3.27 C
119 22-02-2021 09:50:00 3.7 C 96 % 3.12 C
120 22-02-2021 09:55:00 3.8 C 97 % 3.37 C
121 22-02-2021 10:00:00 4 C 96 % 3.42 C
122 22-02-2021 10:05:00 4.1 C 97 % 3.67 C
123 22-02-2021 10:10:00 4.3 C 97 % 3.87 C
124 22-02-2021 10:15:00 4.5 C 97 % 4.07 C
125 22-02-2021 10:20:00 4.6 C 97 % 4.17 C
Sensor: Nr:Datum:Temp:Feuchte:Taupunkt:
Aussen-T/F 126 22-02-2021 10:25:00 4.8 C 97 % 4.37 C
127 22-02-2021 10:30:00 4.9 C 97 % 4.46 C
128 22-02-2021 10:35:00 5.2 C 97 % 4.76 C
129 22-02-2021 10:40:00 5.3 C 97 % 4.86 C
130 22-02-2021 10:45:00 5.4 C 97 % 4.96 C
131 22-02-2021 10:50:00 5.6 C 97 % 5.16 C
132 22-02-2021 10:55:00 5.6 C 96 % 5.01 C
133 22-02-2021 11:00:00 5.7 C 96 % 5.11 C
134 22-02-2021 11:05:00 5.8 C 96 % 5.21 C
135 22-02-2021 11:10:00 6.1 C 96 % 5.51 C
136 22-02-2021 11:15:00 6.2 C 95 % 5.46 C
137 22-02-2021 11:20:00 6.2 C 95 % 5.46 C
138 22-02-2021 11:25:00 6.3 C 94 % 5.41 C
139 22-02-2021 11:30:00 6.3 C 93 % 5.25 C
140 22-02-2021 11:35:00 6.4 C 93 % 5.35 C
141 22-02-2021 11:40:00 6.5 C 92 % 5.3 C
142 22-02-2021 11:45:00 6.6 C 92 % 5.4 C
143 22-02-2021 11:50:00 6.7 C 91 % 5.34 C
144 22-02-2021 11:55:00 6.8 C 91 % 5.44 C
145 22-02-2021 12:00:00 6.9 C 90 % 5.38 C
146 22-02-2021 12:05:00 7.2 C 90 % 5.67 C
147 22-02-2021 12:10:00 7.3 C 89 % 5.61 C
148 22-02-2021 12:15:00 7.6 C 89 % 5.91 C
149 22-02-2021 12:20:00 7.8 C 89 % 6.1 C
150 22-02-2021 12:25:00 7.9 C 88 % 6.04 C
Sensor: Nr:Datum:Temp:Feuchte:Taupunkt:
Aussen-T/F 151 22-02-2021 12:30:00 8.1 C 87 % 6.07 C
152 22-02-2021 12:35:00 8.2 C 86 % 6 C
153 22-02-2021 12:40:00 8.3 C 86 % 6.1 C
154 22-02-2021 12:45:00 8.4 C 85 % 6.03 C
155 22-02-2021 12:50:00 8.5 C 85 % 6.13 C
156 22-02-2021 12:55:00 8.7 C 85 % 6.32 C
157 22-02-2021 13:00:00 8.7 C 84 % 6.15 C
158 22-02-2021 13:05:00 8.8 C 84 % 6.25 C
159 22-02-2021 13:10:00 8.9 C 84 % 6.35 C
160 22-02-2021 13:15:00 9.1 C 84 % 6.54 C
161 22-02-2021 13:20:00 9.2 C 84 % 6.64 C
162 22-02-2021 13:25:00 9.3 C 84 % 6.74 C
163 22-02-2021 13:30:00 9.4 C 83 % 6.66 C
164 22-02-2021 13:35:00 9.6 C 83 % 6.86 C
165 22-02-2021 13:40:00 9.6 C 82 % 6.68 C
166 22-02-2021 13:45:00 9.7 C 82 % 6.78 C
167 22-02-2021 13:50:00 9.8 C 82 % 6.88 C
168 22-02-2021 13:55:00 9.9 C 83 % 7.15 C
169 22-02-2021 14:00:00 10.1 C 84 % 7.52 C
170 22-02-2021 14:05:00 10.3 C 82 % 7.37 C
171 22-02-2021 14:10:00 10.6 C 82 % 7.66 C
172 22-02-2021 14:15:00 10.9 C 81 % 7.77 C
173 22-02-2021 14:20:00 11.2 C 79 % 7.7 C
174 22-02-2021 14:25:00 11.4 C 78 % 7.71 C
175 22-02-2021 14:30:00 11.6 C 77 % 7.71 C
Sensor: Nr:Datum:Temp:Feuchte:Taupunkt:
Aussen-T/F 176 22-02-2021 14:35:00 11.7 C 76 % 7.62 C
177 22-02-2021 14:40:00 11.8 C 77 % 7.9 C
178 22-02-2021 14:45:00 12 C 76 % 7.91 C
179 22-02-2021 14:50:00 12.2 C 76 % 8.1 C
180 22-02-2021 14:55:00 12.3 C 74 % 7.8 C
181 22-02-2021 15:00:00 12.6 C 73 % 7.89 C
182 22-02-2021 15:05:00 12.7 C 74 % 8.19 C
183 22-02-2021 15:10:00 13 C 73 % 8.28 C
184 22-02-2021 15:15:00 13.2 C 73 % 8.47 C
185 22-02-2021 15:20:00 13.4 C 71 % 8.26 C
186 22-02-2021 15:25:00 13.7 C 70 % 8.33 C
187 22-02-2021 15:30:00 13.8 C 70 % 8.43 C
188 22-02-2021 15:35:00 14.1 C 68 % 8.29 C
189 22-02-2021 15:40:00 14.2 C 68 % 8.39 C
190 22-02-2021 15:45:00 14.4 C 67 % 8.36 C
191 22-02-2021 15:50:00 14.6 C 66 % 8.33 C
192 22-02-2021 15:55:00 14.6 C 66 % 8.33 C
193 22-02-2021 16:00:00 14.6 C 66 % 8.33 C
194 22-02-2021 16:05:00 14.6 C 68 % 8.77 C
195 22-02-2021 16:10:00 14.6 C 70 % 9.2 C
196 22-02-2021 16:15:00 14.6 C 70 % 9.2 C
197 22-02-2021 16:20:00 14.6 C 70 % 9.2 C
198 22-02-2021 16:25:00 14.5 C 70 % 9.1 C
199 22-02-2021 16:30:00 14.4 C 69 % 8.79 C
200 22-02-2021 16:35:00 14.4 C 71 % 9.21 C
Sensor: Nr:Datum:Temp:Feuchte:Taupunkt:
Aussen-T/F 201 22-02-2021 16:40:00 14.4 C 72 % 9.42 C
202 22-02-2021 16:45:00 14.3 C 73 % 9.53 C
203 22-02-2021 16:50:00 14.2 C 72 % 9.23 C
204 22-02-2021 16:55:00 14.1 C 73 % 9.34 C
205 22-02-2021 17:00:00 13.9 C 73 % 9.15 C
206 22-02-2021 17:05:00 13.7 C 73 % 8.95 C
207 22-02-2021 17:10:00 13.4 C 73 % 8.66 C
208 22-02-2021 17:15:00 13.2 C 74 % 8.67 C
209 22-02-2021 17:20:00 12.9 C 74 % 8.38 C
210 22-02-2021 17:25:00 12.7 C 75 % 8.39 C
211 22-02-2021 17:30:00 12.4 C 76 % 8.29 C
212 22-02-2021 17:35:00 12.2 C 76 % 8.1 C
213 22-02-2021 17:40:00 12 C 77 % 8.1 C
214 22-02-2021 17:45:00 11.8 C 78 % 8.09 C
215 22-02-2021 17:50:00 11.7 C 78 % 8 C
216 22-02-2021 17:55:00 11.7 C 79 % 8.18 C
217 22-02-2021 18:00:00 11.6 C 79 % 8.09 C
218 22-02-2021 18:05:00 11.4 C 79 % 7.89 C
219 22-02-2021 18:10:00 11.3 C 79 % 7.8 C
220 22-02-2021 18:15:00 11.3 C 80 % 7.98 C
221 22-02-2021 18:20:00 11.3 C 80 % 7.98 C
222 22-02-2021 18:25:00 11.2 C 80 % 7.88 C
223 22-02-2021 18:30:00 11.2 C 80 % 7.88 C
224 22-02-2021 18:35:00 11.1 C 80 % 7.79 C
225 22-02-2021 18:40:00 11.1 C 80 % 7.79 C
Sensor: Nr:Datum:Temp:Feuchte:Taupunkt:
Aussen-T/F 226 22-02-2021 18:45:00 11 C 80 % 7.69 C
227 22-02-2021 18:50:00 10.9 C 81 % 7.77 C
228 22-02-2021 18:55:00 10.9 C 81 % 7.77 C
229 22-02-2021 19:00:00 10.8 C 81 % 7.67 C
230 22-02-2021 19:05:00 10.8 C 81 % 7.67 C
231 22-02-2021 19:10:00 10.7 C 81 % 7.58 C
232 22-02-2021 19:15:00 10.7 C 81 % 7.58 C
233 22-02-2021 19:20:00 10.6 C 81 % 7.48 C
234 22-02-2021 19:25:00 10.5 C 82 % 7.56 C
235 22-02-2021 19:30:00 10.4 C 82 % 7.46 C
236 22-02-2021 19:35:00 10.4 C 82 % 7.46 C
237 22-02-2021 19:40:00 10.3 C 82 % 7.37 C
238 22-02-2021 19:45:00 10.3 C 82 % 7.37 C
239 22-02-2021 19:50:00 10.3 C 83 % 7.54 C
240 22-02-2021 19:55:00 10.3 C 83 % 7.54 C
241 22-02-2021 20:00:00 10.3 C 83 % 7.54 C
242 22-02-2021 20:05:00 10.3 C 83 % 7.54 C
243 22-02-2021 20:10:00 10.3 C 83 % 7.54 C
244 22-02-2021 20:15:00 10.3 C 83 % 7.54 C
245 22-02-2021 20:20:00 10.3 C 83 % 7.54 C
246 22-02-2021 20:25:00 10.3 C 83 % 7.54 C
247 22-02-2021 20:30:00 10.2 C 83 % 7.45 C
248 22-02-2021 20:35:00 10.2 C 84 % 7.62 C
249 22-02-2021 20:40:00 10.1 C 83 % 7.35 C
250 22-02-2021 20:45:00 10 C 83 % 7.25 C
Sensor: Nr:Datum:Temp:Feuchte:Taupunkt:
Aussen-T/F 251 22-02-2021 20:50:00 9.9 C 83 % 7.15 C
252 22-02-2021 20:55:00 9.9 C 84 % 7.33 C
253 22-02-2021 21:00:00 9.8 C 84 % 7.23 C
254 22-02-2021 21:05:00 9.7 C 84 % 7.13 C
255 22-02-2021 21:10:00 9.6 C 84 % 7.03 C
256 22-02-2021 21:15:00 9.4 C 85 % 7.01 C
257 22-02-2021 21:20:00 9.3 C 84 % 6.74 C
258 22-02-2021 21:25:00 9.3 C 84 % 6.74 C
259 22-02-2021 21:30:00 9.2 C 84 % 6.64 C
260 22-02-2021 21:35:00 9 C 84 % 6.45 C
261 22-02-2021 21:40:00 8.8 C 84 % 6.25 C
262 22-02-2021 21:45:00 8.7 C 85 % 6.32 C
263 22-02-2021 21:50:00 8.5 C 85 % 6.13 C
264 22-02-2021 21:55:00 8.3 C 85 % 5.93 C
265 22-02-2021 22:00:00 8.2 C 86 % 6 C
266 22-02-2021 22:05:00 8.1 C 87 % 6.07 C
267 22-02-2021 22:10:00 8.1 C 87 % 6.07 C
268 22-02-2021 22:15:00 8 C 88 % 6.14 C
269 22-02-2021 22:20:00 7.9 C 87 % 5.87 C
270 22-02-2021 22:25:00 7.8 C 88 % 5.94 C
271 22-02-2021 22:30:00 7.8 C 88 % 5.94 C
272 22-02-2021 22:35:00 7.7 C 88 % 5.84 C
273 22-02-2021 22:40:00 7.7 C 89 % 6 C
274 22-02-2021 22:45:00 7.7 C 89 % 6 C
275 22-02-2021 22:50:00 7.7 C 89 % 6 C
Sensor: Nr:Datum:Temp:Feuchte:Taupunkt:
Aussen-T/F 276 22-02-2021 22:55:00 7.7 C 90 % 6.17 C
277 22-02-2021 23:00:00 7.7 C 90 % 6.17 C
278 22-02-2021 23:05:00 7.8 C 90 % 6.27 C
279 22-02-2021 23:10:00 7.8 C 90 % 6.27 C
280 22-02-2021 23:15:00 7.8 C 90 % 6.27 C
281 22-02-2021 23:20:00 7.7 C 90 % 6.17 C
282 22-02-2021 23:25:00 7.7 C 90 % 6.17 C
283 22-02-2021 23:30:00 7.7 C 90 % 6.17 C
284 22-02-2021 23:35:00 7.7 C 90 % 6.17 C
285 22-02-2021 23:40:00 7.7 C 90 % 6.17 C
286 22-02-2021 23:45:00 7.7 C 90 % 6.17 C
287 22-02-2021 23:50:00 7.6 C 90 % 6.07 C
288 22-02-2021 23:55:00 7.6 C 90 % 6.07 C
289 23-02-2021 00:00:00 7.5 C 90 % 5.97 C
290 23-02-2021 00:05:00 7.5 C 90 % 5.97 C
291 23-02-2021 00:10:00 7.4 C 90 % 5.87 C
292 23-02-2021 00:15:00 7.3 C 90 % 5.77 C
293 23-02-2021 00:20:00 7.3 C 90 % 5.77 C
294 23-02-2021 00:25:00 7.3 C 91 % 5.93 C
295 23-02-2021 00:30:00 7.4 C 91 % 6.03 C
296 23-02-2021 00:35:00 7.4 C 91 % 6.03 C
297 23-02-2021 00:40:00 7.4 C 91 % 6.03 C
298 23-02-2021 00:45:00 7.4 C 91 % 6.03 C
299 23-02-2021 00:50:00 7.3 C 91 % 5.93 C
300 23-02-2021 00:55:00 7.3 C 91 % 5.93 C
Sensor: Nr:Datum:Temp:Feuchte:Taupunkt:
Aussen-T/F 301 23-02-2021 01:00:00 7.3 C 91 % 5.93 C
302 23-02-2021 01:05:00 7.3 C 91 % 5.93 C
303 23-02-2021 01:10:00 7.2 C 91 % 5.83 C
304 23-02-2021 01:15:00 7.2 C 91 % 5.83 C
305 23-02-2021 01:20:00 7.2 C 91 % 5.83 C
306 23-02-2021 01:25:00 7.1 C 91 % 5.73 C
307 23-02-2021 01:30:00 7.1 C 92 % 5.89 C
308 23-02-2021 01:35:00 7.2 C 92 % 5.99 C
309 23-02-2021 01:40:00 7.2 C 92 % 5.99 C
310 23-02-2021 01:45:00 7.2 C 92 % 5.99 C
311 23-02-2021 01:50:00 7.2 C 92 % 5.99 C
312 23-02-2021 01:55:00 7.2 C 92 % 5.99 C
313 23-02-2021 02:00:00 7.2 C 92 % 5.99 C
314 23-02-2021 02:05:00 7.2 C 92 % 5.99 C
315 23-02-2021 02:10:00 7.2 C 92 % 5.99 C
316 23-02-2021 02:15:00 7.2 C 92 % 5.99 C
317 23-02-2021 02:20:00 7.3 C 92 % 6.09 C
318 23-02-2021 02:25:00 7.3 C 92 % 6.09 C
319 23-02-2021 02:30:00 7.3 C 92 % 6.09 C
320 23-02-2021 02:35:00 7.3 C 92 % 6.09 C
321 23-02-2021 02:40:00 7.3 C 92 % 6.09 C
322 23-02-2021 02:45:00 7.3 C 92 % 6.09 C
323 23-02-2021 02:50:00 7.3 C 92 % 6.09 C
324 23-02-2021 02:55:00 7.3 C 92 % 6.09 C
325 23-02-2021 03:00:00 7.3 C 92 % 6.09 C
Sensor: Nr:Datum:Temp:Feuchte:Taupunkt:
Aussen-T/F 326 23-02-2021 03:05:00 7.3 C 93 % 6.25 C
327 23-02-2021 03:10:00 7.4 C 92 % 6.19 C
328 23-02-2021 03:15:00 7.4 C 92 % 6.19 C
329 23-02-2021 03:20:00 7.4 C 93 % 6.34 C
330 23-02-2021 03:25:00 7.4 C 92 % 6.19 C
331 23-02-2021 03:30:00 7.4 C 92 % 6.19 C
332 23-02-2021 03:35:00 7.4 C 92 % 6.19 C
333 23-02-2021 03:40:00 7.4 C 92 % 6.19 C
334 23-02-2021 03:45:00 7.4 C 92 % 6.19 C
335 23-02-2021 03:50:00 7.4 C 92 % 6.19 C
336 23-02-2021 03:55:00 7.4 C 92 % 6.19 C
337 23-02-2021 04:00:00 7.4 C 93 % 6.34 C
338 23-02-2021 04:05:00 7.4 C 93 % 6.34 C
339 23-02-2021 04:10:00 7.4 C 92 % 6.19 C
340 23-02-2021 04:15:00 7.4 C 92 % 6.19 C
341 23-02-2021 04:20:00 7.4 C 92 % 6.19 C
342 23-02-2021 04:25:00 7.4 C 93 % 6.34 C
343 23-02-2021 04:30:00 7.3 C 92 % 6.09 C
344 23-02-2021 04:35:00 7.3 C 92 % 6.09 C
345 23-02-2021 04:40:00 7.3 C 93 % 6.25 C
346 23-02-2021 04:45:00 7.3 C 93 % 6.25 C
347 23-02-2021 04:50:00 7.4 C 93 % 6.34 C
348 23-02-2021 04:55:00 7.4 C 93 % 6.34 C
349 23-02-2021 05:00:00 7.3 C 92 % 6.09 C
350 23-02-2021 05:05:00 7.3 C 92 % 6.09 C
Sensor: Nr:Datum:Temp:Feuchte:Taupunkt:
Aussen-T/F 351 23-02-2021 05:10:00 7.3 C 92 % 6.09 C
352 23-02-2021 05:15:00 7.2 C 93 % 6.15 C
353 23-02-2021 05:20:00 7.2 C 93 % 6.15 C
354 23-02-2021 05:25:00 7.3 C 93 % 6.25 C
355 23-02-2021 05:30:00 7.2 C 93 % 6.15 C
356 23-02-2021 05:35:00 7.2 C 93 % 6.15 C
357 23-02-2021 05:40:00 7.2 C 92 % 5.99 C
358 23-02-2021 05:45:00 7.1 C 92 % 5.89 C
359 23-02-2021 05:50:00 6.9 C 92 % 5.69 C
360 23-02-2021 05:55:00 6.8 C 92 % 5.59 C
361 23-02-2021 06:00:00 6.7 C 92 % 5.49 C
362 23-02-2021 06:05:00 6.7 C 92 % 5.49 C
363 23-02-2021 06:10:00 6.6 C 92 % 5.4 C
364 23-02-2021 06:15:00 6.4 C 92 % 5.2 C
365 23-02-2021 06:20:00 6.3 C 92 % 5.1 C
366 23-02-2021 06:25:00 6.3 C 93 % 5.25 C
367 23-02-2021 06:30:00 6.2 C 93 % 5.15 C
368 23-02-2021 06:35:00 6.1 C 93 % 5.06 C
369 23-02-2021 06:40:00 6.1 C 93 % 5.06 C
370 23-02-2021 06:45:00 6.2 C 94 % 5.31 C
371 23-02-2021 06:50:00 6.2 C 94 % 5.31 C
372 23-02-2021 06:55:00 6.2 C 94 % 5.31 C
373 23-02-2021 07:00:00 6.1 C 94 % 5.21 C
374 23-02-2021 07:05:00 6.1 C 94 % 5.21 C
375 23-02-2021 07:10:00 6.3 C 95 % 5.56 C
Sensor: Nr:Datum:Temp:Feuchte:Taupunkt:
Aussen-T/F 376 23-02-2021 07:15:00 6.4 C 95 % 5.66 C
377 23-02-2021 07:20:00 6.7 C 95 % 5.96 C
378 23-02-2021 07:25:00 6.8 C 95 % 6.06 C
379 23-02-2021 07:30:00 7.1 C 95 % 6.35 C
380 23-02-2021 07:35:00 7.2 C 95 % 6.45 C
381 23-02-2021 07:40:00 7.2 C 95 % 6.45 C
382 23-02-2021 07:45:00 7.2 C 95 % 6.45 C
383 23-02-2021 07:50:00 7.4 C 95 % 6.65 C
384 23-02-2021 07:55:00 7.5 C 95 % 6.75 C
385 23-02-2021 08:00:00 7.7 C 95 % 6.95 C
386 23-02-2021 08:05:00 7.7 C 95 % 6.95 C
387 23-02-2021 08:10:00 7.6 C 94 % 6.7 C
388 23-02-2021 08:15:00 7.7 C 95 % 6.95 C
389 23-02-2021 08:20:00 7.9 C 95 % 7.15 C
390 23-02-2021 08:25:00 8.1 C 95 % 7.35 C
391 23-02-2021 08:30:00 8.2 C 95 % 7.45 C
392 23-02-2021 08:35:00 8.1 C 94 % 7.19 C
393 23-02-2021 08:40:00 8.1 C 94 % 7.19 C
394 23-02-2021 08:45:00 8.2 C 93 % 7.14 C
395 23-02-2021 08:50:00 8.2 C 93 % 7.14 C
396 23-02-2021 08:55:00 8.2 C 93 % 7.14 C
397 23-02-2021 09:00:00 8.2 C 93 % 7.14 C
398 23-02-2021 09:05:00 8.2 C 93 % 7.14 C
399 23-02-2021 09:10:00 8.3 C 93 % 7.24 C
400 23-02-2021 09:15:00 8.5 C 94 % 7.59 C
Sensor: Nr:Datum:Temp:Feuchte:Taupunkt:
Aussen-T/F 401 23-02-2021 09:20:00 8.7 C 94 % 7.79 C
402 23-02-2021 09:25:00 8.9 C 94 % 7.99 C
403 23-02-2021 09:30:00 9.2 C 93 % 8.13 C
404 23-02-2021 09:35:00 9.2 C 92 % 7.97 C
405 23-02-2021 09:40:00 9.3 C 92 % 8.07 C
406 23-02-2021 09:45:00 9.4 C 92 % 8.17 C
407 23-02-2021 09:50:00 9.5 C 91 % 8.11 C
408 23-02-2021 09:55:00 9.6 C 91 % 8.21 C
409 23-02-2021 10:00:00 9.6 C 91 % 8.21 C
410 23-02-2021 10:05:00 9.7 C 91 % 8.3 C
411 23-02-2021 10:10:00 9.8 C 91 % 8.4 C
412 23-02-2021 10:15:00 9.8 C 91 % 8.4 C
413 23-02-2021 10:20:00 10 C 91 % 8.6 C
414 23-02-2021 10:25:00 10.1 C 90 % 8.54 C
415 23-02-2021 10:30:00 10.3 C 91 % 8.9 C
416 23-02-2021 10:35:00 10.6 C 90 % 9.03 C
417 23-02-2021 10:40:00 10.9 C 90 % 9.33 C
418 23-02-2021 10:45:00 11.2 C 89 % 9.46 C
419 23-02-2021 10:50:00 11.4 C 88 % 9.49 C
420 23-02-2021 10:55:00 11.8 C 87 % 9.71 C
421 23-02-2021 11:00:00 12.1 C 86 % 9.83 C
422 23-02-2021 11:05:00 12.3 C 85 % 9.85 C
423 23-02-2021 11:10:00 12.6 C 85 % 10.15 C
424 23-02-2021 11:15:00 12.9 C 83 % 10.09 C
425 23-02-2021 11:20:00 13.2 C 82 % 10.2 C
Sensor: Nr:Datum:Temp:Feuchte:Taupunkt:
Aussen-T/F 426 23-02-2021 11:25:00 13.4 C 81 % 10.21 C
427 23-02-2021 11:30:00 13.7 C 81 % 10.5 C
428 23-02-2021 11:35:00 13.9 C 81 % 10.7 C
429 23-02-2021 11:40:00 14.2 C 80 % 10.8 C
430 23-02-2021 11:45:00 14.4 C 80 % 11 C
431 23-02-2021 11:50:00 14.6 C 79 % 11 C
432 23-02-2021 11:55:00 14.8 C 79 % 11.2 C
433 23-02-2021 12:00:00 14.9 C 79 % 11.29 C
434 23-02-2021 12:05:00 15.1 C 78 % 11.3 C
435 23-02-2021 12:10:00 15.3 C 78 % 11.49 C
436 23-02-2021 12:15:00 15.5 C 78 % 11.68 C
437 23-02-2021 12:20:00 15.7 C 77 % 11.68 C
438 23-02-2021 12:25:00 15.9 C 75 % 11.48 C
439 23-02-2021 12:30:00 16.2 C 73 % 11.36 C
440 23-02-2021 12:35:00 16.6 C 70 % 11.11 C
441 23-02-2021 12:40:00 16.9 C 69 % 11.18 C
442 23-02-2021 12:45:00 17.3 C 68 % 11.34 C
443 23-02-2021 12:50:00 17.6 C 65 % 10.95 C
444 23-02-2021 12:55:00 17.8 C 65 % 11.14 C
445 23-02-2021 13:00:00 17.8 C 64 % 10.9 C
446 23-02-2021 13:05:00 18 C 63 % 10.86 C
447 23-02-2021 13:10:00 18.1 C 64 % 11.19 C
448 23-02-2021 13:15:00 18.2 C 62 % 10.81 C
449 23-02-2021 13:20:00 18.4 C 63 % 11.23 C
450 23-02-2021 13:25:00 18.5 C 62 % 11.09 C
Sensor: Nr:Datum:Temp:Feuchte:Taupunkt:
Aussen-T/F 451 23-02-2021 13:30:00 18.6 C 61 % 10.94 C
452 23-02-2021 13:35:00 18.7 C 62 % 11.28 C
453 23-02-2021 13:40:00 18.9 C 59 % 10.72 C
454 23-02-2021 13:45:00 18.9 C 60 % 10.97 C
455 23-02-2021 13:50:00 19 C 59 % 10.81 C
456 23-02-2021 13:55:00 19.1 C 58 % 10.65 C
457 23-02-2021 14:00:00 19.2 C 59 % 11 C
458 23-02-2021 14:05:00 19.3 C 58 % 10.84 C
459 23-02-2021 14:10:00 19.4 C 57 % 10.67 C
460 23-02-2021 14:15:00 19.5 C 58 % 11.02 C
461 23-02-2021 14:20:00 19.6 C 57 % 10.86 C
462 23-02-2021 14:25:00 19.7 C 58 % 11.21 C
463 23-02-2021 14:30:00 19.7 C 59 % 11.47 C
464 23-02-2021 14:35:00 19.8 C 59 % 11.56 C
465 23-02-2021 14:40:00 19.9 C 57 % 11.14 C
466 23-02-2021 14:45:00 20.2 C 55 % 10.88 C
467 23-02-2021 14:50:00 20.2 C 56 % 11.15 C
468 23-02-2021 14:55:00 20.2 C 56 % 11.15 C
469 23-02-2021 15:00:00 20 C 57 % 11.23 C
470 23-02-2021 15:05:00 19.8 C 56 % 10.78 C
471 23-02-2021 15:10:00 19.8 C 56 % 10.78 C
472 23-02-2021 15:15:00 19.8 C 57 % 11.04 C
473 23-02-2021 15:20:00 19.7 C 58 % 11.21 C
474 23-02-2021 15:25:00 19.6 C 57 % 10.86 C
475 23-02-2021 15:30:00 19.6 C 57 % 10.86 C
Sensor: Nr:Datum:Temp:Feuchte:Taupunkt:
Aussen-T/F 476 23-02-2021 15:35:00 19.6 C 58 % 11.12 C
477 23-02-2021 15:40:00 19.6 C 58 % 11.12 C
478 23-02-2021 15:45:00 19.6 C 57 % 10.86 C
479 23-02-2021 15:50:00 19.7 C 58 % 11.21 C
480 23-02-2021 15:55:00 19.7 C 57 % 10.95 C
481 23-02-2021 16:00:00 19.8 C 58 % 11.3 C
482 23-02-2021 16:05:00 19.9 C 56 % 10.87 C
483 23-02-2021 16:10:00 19.9 C 58 % 11.4 C
484 23-02-2021 16:15:00 19.8 C 57 % 11.04 C
485 23-02-2021 16:20:00 19.8 C 56 % 10.78 C
486 23-02-2021 16:25:00 19.8 C 57 % 11.04 C
487 23-02-2021 16:30:00 19.7 C 56 % 10.68 C
488 23-02-2021 16:35:00 19.6 C 56 % 10.59 C
489 23-02-2021 16:40:00 19.6 C 57 % 10.86 C
490 23-02-2021 16:45:00 19.4 C 56 % 10.4 C
491 23-02-2021 16:50:00 19.4 C 56 % 10.4 C
492 23-02-2021 16:55:00 19.3 C 55 % 10.04 C
493 23-02-2021 17:00:00 19.3 C 54 % 9.77 C
494 23-02-2021 17:05:00 19.3 C 56 % 10.31 C
495 23-02-2021 17:10:00 19.3 C 55 % 10.04 C
496 23-02-2021 17:15:00 19.3 C 56 % 10.31 C
497 23-02-2021 17:20:00 19.2 C 59 % 11 C
498 23-02-2021 17:25:00 18.8 C 60 % 10.88 C
499 23-02-2021 17:30:00 18.4 C 61 % 10.75 C
500 23-02-2021 17:35:00 17.9 C 63 % 10.76 C
Sensor: Nr:Datum:Temp:Feuchte:Taupunkt:
Aussen-T/F 501 23-02-2021 17:40:00 17.4 C 64 % 10.53 C
502 23-02-2021 17:45:00 17 C 66 % 10.61 C
503 23-02-2021 17:50:00 16.6 C 67 % 10.45 C
504 23-02-2021 17:55:00 16.1 C 69 % 10.42 C
505 23-02-2021 18:00:00 15.8 C 69 % 10.13 C
506 23-02-2021 18:05:00 15.5 C 70 % 10.06 C
507 23-02-2021 18:10:00 15.2 C 71 % 9.98 C
508 23-02-2021 18:15:00 15 C 72 % 10 C
509 23-02-2021 18:20:00 14.8 C 73 % 10.01 C
510 23-02-2021 18:25:00 14.6 C 74 % 10.02 C
511 23-02-2021 18:30:00 14.4 C 75 % 10.03 C
512 23-02-2021 18:35:00 14.2 C 75 % 9.84 C
513 23-02-2021 18:40:00 14.1 C 76 % 9.94 C
514 23-02-2021 18:45:00 13.9 C 77 % 9.94 C
515 23-02-2021 18:50:00 13.8 C 77 % 9.84 C
516 23-02-2021 18:55:00 13.7 C 78 % 9.94 C
517 23-02-2021 19:00:00 13.6 C 78 % 9.84 C
518 23-02-2021 19:05:00 13.4 C 78 % 9.65 C
519 23-02-2021 19:10:00 13.3 C 79 % 9.74 C
520 23-02-2021 19:15:00 13.2 C 79 % 9.64 C
521 23-02-2021 19:20:00 13 C 80 % 9.63 C
522 23-02-2021 19:25:00 12.9 C 80 % 9.54 C
523 23-02-2021 19:30:00 12.8 C 81 % 9.62 C
524 23-02-2021 19:35:00 12.6 C 81 % 9.43 C
525 23-02-2021 19:40:00 12.5 C 82 % 9.51 C
Sensor: Nr:Datum:Temp:Feuchte:Taupunkt:
Aussen-T/F 526 23-02-2021 19:45:00 12.4 C 82 % 9.42 C
527 23-02-2021 19:50:00 12.3 C 82 % 9.32 C
528 23-02-2021 19:55:00 12.2 C 82 % 9.22 C
529 23-02-2021 20:00:00 12.1 C 83 % 9.3 C
530 23-02-2021 20:05:00 11.9 C 83 % 9.11 C
531 23-02-2021 20:10:00 11.8 C 84 % 9.19 C
532 23-02-2021 20:15:00 11.7 C 84 % 9.09 C
533 23-02-2021 20:20:00 11.6 C 84 % 8.99 C
534 23-02-2021 20:25:00 11.4 C 84 % 8.8 C
535 23-02-2021 20:30:00 11.2 C 84 % 8.6 C
536 23-02-2021 20:35:00 11.1 C 85 % 8.68 C
537 23-02-2021 20:40:00 11.1 C 86 % 8.85 C
538 23-02-2021 20:45:00 10.9 C 86 % 8.65 C
539 23-02-2021 20:50:00 10.8 C 85 % 8.38 C
540 23-02-2021 20:55:00 10.6 C 86 % 8.36 C
541 23-02-2021 21:00:00 10.4 C 87 % 8.33 C
542 23-02-2021 21:05:00 10.3 C 88 % 8.4 C
543 23-02-2021 21:10:00 10.3 C 88 % 8.4 C
544 23-02-2021 21:15:00 10.3 C 89 % 8.57 C
545 23-02-2021 21:20:00 10.3 C 88 % 8.4 C
546 23-02-2021 21:25:00 10.2 C 87 % 8.14 C
547 23-02-2021 21:30:00 10.1 C 88 % 8.21 C
548 23-02-2021 21:35:00 10 C 88 % 8.11 C
549 23-02-2021 21:40:00 9.9 C 88 % 8.01 C
550 23-02-2021 21:45:00 9.9 C 88 % 8.01 C
Sensor: Nr:Datum:Temp:Feuchte:Taupunkt:
Aussen-T/F 551 23-02-2021 21:50:00 9.8 C 89 % 8.08 C
552 23-02-2021 21:55:00 9.8 C 88 % 7.91 C
553 23-02-2021 22:00:00 9.7 C 88 % 7.81 C
554 23-02-2021 22:05:00 9.6 C 89 % 7.88 C
555 23-02-2021 22:10:00 9.6 C 89 % 7.88 C
556 23-02-2021 22:15:00 9.4 C 89 % 7.68 C
557 23-02-2021 22:20:00 9.4 C 90 % 7.85 C
558 23-02-2021 22:25:00 9.3 C 90 % 7.75 C
559 23-02-2021 22:30:00 9.3 C 90 % 7.75 C
560 23-02-2021 22:35:00 9.2 C 90 % 7.65 C
561 23-02-2021 22:40:00 9 C 90 % 7.45 C
562 23-02-2021 22:45:00 8.9 C 90 % 7.35 C
563 23-02-2021 22:50:00 8.8 C 90 % 7.25 C
564 23-02-2021 22:55:00 8.8 C 90 % 7.25 C
565 23-02-2021 23:00:00 8.6 C 90 % 7.06 C
566 23-02-2021 23:05:00 8.5 C 91 % 7.12 C
567 23-02-2021 23:10:00 8.5 C 91 % 7.12 C
568 23-02-2021 23:15:00 8.4 C 91 % 7.02 C
569 23-02-2021 23:20:00 8.4 C 91 % 7.02 C
570 23-02-2021 23:25:00 8.3 C 91 % 6.92 C
571 23-02-2021 23:30:00 8.2 C 91 % 6.82 C
572 23-02-2021 23:35:00 8.2 C 92 % 6.98 C
573 23-02-2021 23:40:00 8.1 C 92 % 6.88 C
574 23-02-2021 23:45:00 8.1 C 92 % 6.88 C
575 23-02-2021 23:50:00 8.1 C 92 % 6.88 C
Sensor: Nr:Datum:Temp:Feuchte:Taupunkt:
Aussen-T/F 576 23-02-2021 23:55:00 8.1 C 93 % 7.04 C
577 24-02-2021 00:00:00 8.1 C 93 % 7.04 C
578 24-02-2021 00:05:00 8.1 C 93 % 7.04 C
579 24-02-2021 00:10:00 8.1 C 93 % 7.04 C
580 24-02-2021 00:15:00 8.1 C 93 % 7.04 C
581 24-02-2021 00:20:00 8 C 93 % 6.94 C
582 24-02-2021 00:25:00 7.9 C 93 % 6.84 C
583 24-02-2021 00:30:00 7.9 C 93 % 6.84 C
584 24-02-2021 00:35:00 7.8 C 93 % 6.74 C
585 24-02-2021 00:40:00 7.8 C 93 % 6.74 C
586 24-02-2021 00:45:00 7.8 C 93 % 6.74 C
587 24-02-2021 00:50:00 7.7 C 93 % 6.64 C
588 24-02-2021 00:55:00 7.7 C 93 % 6.64 C
589 24-02-2021 01:00:00 7.6 C 93 % 6.54 C
590 24-02-2021 01:05:00 7.5 C 93 % 6.44 C
591 24-02-2021 01:10:00 7.4 C 93 % 6.34 C
592 24-02-2021 01:15:00 7.3 C 93 % 6.25 C
593 24-02-2021 01:20:00 7.2 C 93 % 6.15 C
594 24-02-2021 01:25:00 7.1 C 93 % 6.05 C
595 24-02-2021 01:30:00 7 C 93 % 5.95 C
596 24-02-2021 01:35:00 6.9 C 93 % 5.85 C
597 24-02-2021 01:40:00 6.8 C 93 % 5.75 C
598 24-02-2021 01:45:00 6.8 C 93 % 5.75 C
599 24-02-2021 01:50:00 6.8 C 94 % 5.9 C
600 24-02-2021 01:55:00 6.8 C 94 % 5.9 C
Sensor: Nr:Datum:Temp:Feuchte:Taupunkt:
Aussen-T/F 601 24-02-2021 02:00:00 6.8 C 94 % 5.9 C
602 24-02-2021 02:05:00 6.7 C 94 % 5.8 C
603 24-02-2021 02:10:00 6.7 C 94 % 5.8 C
604 24-02-2021 02:15:00 6.6 C 94 % 5.71 C
605 24-02-2021 02:20:00 6.4 C 93 % 5.35 C
606 24-02-2021 02:25:00 6.3 C 94 % 5.41 C
607 24-02-2021 02:30:00 6.3 C 94 % 5.41 C
608 24-02-2021 02:35:00 6.3 C 94 % 5.41 C
609 24-02-2021 02:40:00 6.4 C 94 % 5.51 C
610 24-02-2021 02:45:00 6.3 C 94 % 5.41 C
611 24-02-2021 02:50:00 6.4 C 94 % 5.51 C
612 24-02-2021 02:55:00 6.3 C 94 % 5.41 C
613 24-02-2021 03:00:00 6.3 C 94 % 5.41 C
614 24-02-2021 03:05:00 6.2 C 95 % 5.46 C
615 24-02-2021 03:10:00 6.2 C 94 % 5.31 C
616 24-02-2021 03:15:00 6.1 C 94 % 5.21 C
617 24-02-2021 03:20:00 5.9 C 94 % 5.01 C
618 24-02-2021 03:25:00 5.9 C 95 % 5.16 C
619 24-02-2021 03:30:00 5.9 C 95 % 5.16 C
620 24-02-2021 03:35:00 5.9 C 95 % 5.16 C
621 24-02-2021 03:40:00 5.8 C 95 % 5.06 C
622 24-02-2021 03:45:00 5.8 C 95 % 5.06 C
623 24-02-2021 03:50:00 5.8 C 95 % 5.06 C
624 24-02-2021 03:55:00 5.8 C 95 % 5.06 C
625 24-02-2021 04:00:00 5.8 C 95 % 5.06 C
Sensor: Nr:Datum:Temp:Feuchte:Taupunkt:
Aussen-T/F 626 24-02-2021 04:05:00 5.8 C 95 % 5.06 C
627 24-02-2021 04:10:00 5.7 C 95 % 4.96 C
628 24-02-2021 04:15:00 5.7 C 95 % 4.96 C
629 24-02-2021 04:20:00 5.6 C 95 % 4.86 C
630 24-02-2021 04:25:00 5.5 C 95 % 4.76 C
631 24-02-2021 04:30:00 5.4 C 95 % 4.66 C
632 24-02-2021 04:35:00 5.3 C 95 % 4.57 C
633 24-02-2021 04:40:00 5.3 C 95 % 4.57 C
634 24-02-2021 04:45:00 5.3 C 95 % 4.57 C
635 24-02-2021 04:50:00 5.3 C 95 % 4.57 C
636 24-02-2021 04:55:00 5.3 C 95 % 4.57 C
637 24-02-2021 05:00:00 5.4 C 95 % 4.66 C
638 24-02-2021 05:05:00 5.4 C 95 % 4.66 C
639 24-02-2021 05:10:00 5.4 C 96 % 4.81 C
640 24-02-2021 05:15:00 5.4 C 95 % 4.66 C
641 24-02-2021 05:20:00 5.3 C 95 % 4.57 C
642 24-02-2021 05:25:00 5.2 C 95 % 4.47 C
643 24-02-2021 05:30:00 5.1 C 95 % 4.37 C
644 24-02-2021 05:35:00 4.9 C 95 % 4.17 C
645 24-02-2021 05:40:00 4.9 C 95 % 4.17 C
646 24-02-2021 05:45:00 4.8 C 95 % 4.07 C
647 24-02-2021 05:50:00 4.8 C 95 % 4.07 C
648 24-02-2021 05:55:00 4.8 C 95 % 4.07 C
649 24-02-2021 06:00:00 4.8 C 95 % 4.07 C
650 24-02-2021 06:05:00 4.8 C 95 % 4.07 C
Sensor: Nr:Datum:Temp:Feuchte:Taupunkt:
Aussen-T/F 651 24-02-2021 06:10:00 4.7 C 95 % 3.97 C
652 24-02-2021 06:15:00 4.7 C 95 % 3.97 C
653 24-02-2021 06:20:00 4.7 C 95 % 3.97 C
654 24-02-2021 06:25:00 4.6 C 95 % 3.87 C
655 24-02-2021 06:30:00 4.6 C 96 % 4.02 C
656 24-02-2021 06:35:00 4.6 C 96 % 4.02 C
657 24-02-2021 06:40:00 4.6 C 96 % 4.02 C
658 24-02-2021 06:45:00 4.6 C 96 % 4.02 C
659 24-02-2021 06:50:00 4.6 C 96 % 4.02 C
660 24-02-2021 06:55:00 4.6 C 96 % 4.02 C
661 24-02-2021 07:00:00 4.6 C 96 % 4.02 C
662 24-02-2021 07:05:00 4.7 C 96 % 4.12 C
663 24-02-2021 07:10:00 4.7 C 96 % 4.12 C
664 24-02-2021 07:15:00 4.6 C 96 % 4.02 C
665 24-02-2021 07:20:00 4.6 C 96 % 4.02 C
666 24-02-2021 07:25:00 4.6 C 96 % 4.02 C
667 24-02-2021 07:30:00 4.6 C 96 % 4.02 C
668 24-02-2021 07:35:00 4.7 C 96 % 4.12 C
669 24-02-2021 07:40:00 4.8 C 96 % 4.22 C
670 24-02-2021 07:45:00 5.1 C 96 % 4.52 C
671 24-02-2021 07:50:00 5.2 C 96 % 4.62 C
672 24-02-2021 07:55:00 5.3 C 96 % 4.72 C
673 24-02-2021 08:00:00 5.3 C 96 % 4.72 C
674 24-02-2021 08:05:00 5.3 C 96 % 4.72 C
675 24-02-2021 08:10:00 5.3 C 96 % 4.72 C
Sensor: Nr:Datum:Temp:Feuchte:Taupunkt:
Aussen-T/F 676 24-02-2021 08:15:00 5.3 C 96 % 4.72 C
677 24-02-2021 08:20:00 5.4 C 97 % 4.96 C
678 24-02-2021 08:25:00 5.5 C 97 % 5.06 C
679 24-02-2021 08:30:00 5.6 C 97 % 5.16 C
680 24-02-2021 08:35:00 5.7 C 96 % 5.11 C
681 24-02-2021 08:40:00 5.7 C 96 % 5.11 C
682 24-02-2021 08:45:00 5.7 C 97 % 5.26 C
683 24-02-2021 08:50:00 5.8 C 97 % 5.36 C
684 24-02-2021 08:55:00 6 C 97 % 5.56 C
685 24-02-2021 09:00:00 6.2 C 97 % 5.76 C
686 24-02-2021 09:05:00 6.3 C 97 % 5.86 C
687 24-02-2021 09:10:00 6.4 C 97 % 5.96 C
688 24-02-2021 09:15:00 6.4 C 97 % 5.96 C
689 24-02-2021 09:20:00 6.5 C 97 % 6.06 C
690 24-02-2021 09:25:00 6.6 C 97 % 6.16 C
691 24-02-2021 09:30:00 6.6 C 97 % 6.16 C
692 24-02-2021 09:35:00 6.7 C 97 % 6.26 C
693 24-02-2021 09:40:00 6.7 C 97 % 6.26 C
694 24-02-2021 09:45:00 6.8 C 97 % 6.36 C
695 24-02-2021 09:50:00 6.8 C 97 % 6.36 C
696 24-02-2021 09:55:00 6.9 C 97 % 6.46 C
697 24-02-2021 10:00:00 6.9 C 97 % 6.46 C
698 24-02-2021 10:05:00 6.9 C 97 % 6.46 C
699 24-02-2021 10:10:00 7 C 97 % 6.56 C
700 24-02-2021 10:15:00 7.1 C 97 % 6.66 C
Sensor: Nr:Datum:Temp:Feuchte:Taupunkt:
Aussen-T/F 701 24-02-2021 10:20:00 7.2 C 97 % 6.76 C
702 24-02-2021 10:25:00 7.3 C 97 % 6.86 C
703 24-02-2021 10:30:00 7.4 C 97 % 6.96 C
704 24-02-2021 10:35:00 7.5 C 97 % 7.06 C
705 24-02-2021 10:40:00 7.7 C 97 % 7.25 C
706 24-02-2021 10:45:00 7.9 C 97 % 7.45 C
707 24-02-2021 10:50:00 8.1 C 97 % 7.65 C
708 24-02-2021 10:55:00 8.3 C 97 % 7.85 C
709 24-02-2021 11:00:00 8.5 C 97 % 8.05 C
710 24-02-2021 11:05:00 8.7 C 97 % 8.25 C
711 24-02-2021 11:10:00 8.8 C 97 % 8.35 C
712 24-02-2021 11:15:00 9.1 C 97 % 8.65 C
713 24-02-2021 11:20:00 9.3 C 97 % 8.85 C
714 24-02-2021 11:25:00 9.6 C 98 % 9.3 C
715 24-02-2021 11:30:00 9.8 C 97 % 9.35 C
716 24-02-2021 11:35:00 10.1 C 97 % 9.65 C
717 24-02-2021 11:40:00 10.3 C 97 % 9.85 C
718 24-02-2021 11:45:00 10.6 C 97 % 10.14 C
719 24-02-2021 11:50:00 10.9 C 97 % 10.44 C
720 24-02-2021 11:55:00 11.2 C 97 % 10.74 C
721 24-02-2021 12:00:00 11.4 C 97 % 10.94 C
722 24-02-2021 12:05:00 11.7 C 97 % 11.24 C
723 24-02-2021 12:10:00 12 C 97 % 11.54 C
724 24-02-2021 12:15:00 12.3 C 97 % 11.84 C
725 24-02-2021 12:20:00 12.6 C 97 % 12.14 C
Sensor: Nr:Datum:Temp:Feuchte:Taupunkt:
Aussen-T/F 726 24-02-2021 12:25:00 12.9 C 96 % 12.28 C
727 24-02-2021 12:30:00 13.3 C 94 % 12.36 C
728 24-02-2021 12:35:00 13.7 C 92 % 12.42 C
729 24-02-2021 12:40:00 14.1 C 89 % 12.32 C
730 24-02-2021 12:45:00 14.7 C 88 % 12.73 C
731 24-02-2021 12:50:00 15.1 C 84 % 12.42 C
732 24-02-2021 12:55:00 15.4 C 83 % 12.53 C
733 24-02-2021 13:00:00 15.8 C 79 % 12.17 C
734 24-02-2021 13:05:00 16.2 C 78 % 12.36 C
735 24-02-2021 13:10:00 16.4 C 76 % 12.16 C
736 24-02-2021 13:15:00 16.8 C 74 % 12.14 C
737 24-02-2021 13:20:00 17 C 73 % 12.13 C
738 24-02-2021 13:25:00 17.2 C 72 % 12.11 C
739 24-02-2021 13:30:00 17.4 C 72 % 12.3 C
740 24-02-2021 13:35:00 17.5 C 70 % 11.97 C
741 24-02-2021 13:40:00 17.7 C 69 % 11.95 C
742 24-02-2021 13:45:00 17.9 C 69 % 12.14 C
743 24-02-2021 13:50:00 18.1 C 67 % 11.88 C
744 24-02-2021 13:55:00 18.2 C 66 % 11.75 C
745 24-02-2021 14:00:00 18.3 C 67 % 12.07 C
746 24-02-2021 14:05:00 18.4 C 65 % 11.71 C
747 24-02-2021 14:10:00 18.6 C 65 % 11.9 C
748 24-02-2021 14:15:00 18.6 C 64 % 11.66 C
749 24-02-2021 14:20:00 18.7 C 65 % 11.99 C
750 24-02-2021 14:25:00 18.7 C 65 % 11.99 C
Sensor: Nr:Datum:Temp:Feuchte:Taupunkt:
Aussen-T/F 751 24-02-2021 14:30:00 18.8 C 65 % 12.09 C
752 24-02-2021 14:35:00 18.9 C 65 % 12.18 C
753 24-02-2021 14:40:00 19 C 63 % 11.8 C
754 24-02-2021 14:45:00 19 C 64 % 12.04 C
755 24-02-2021 14:50:00 18.9 C 63 % 11.71 C
756 24-02-2021 14:55:00 18.9 C 64 % 11.95 C
757 24-02-2021 15:00:00 18.8 C 65 % 12.09 C
758 24-02-2021 15:05:00 18.8 C 64 % 11.85 C
759 24-02-2021 15:10:00 18.8 C 66 % 12.32 C
760 24-02-2021 15:15:00 18.8 C 66 % 12.32 C
761 24-02-2021 15:20:00 18.7 C 64 % 11.76 C
762 24-02-2021 15:25:00 18.7 C 66 % 12.22 C
763 24-02-2021 15:30:00 18.8 C 66 % 12.32 C
764 24-02-2021 15:35:00 18.7 C 64 % 11.76 C
765 24-02-2021 15:40:00 18.8 C 65 % 12.09 C
766 24-02-2021 15:45:00 18.8 C 64 % 11.85 C
767 24-02-2021 15:50:00 18.9 C 64 % 11.95 C
768 24-02-2021 15:55:00 18.9 C 62 % 11.47 C
769 24-02-2021 16:00:00 19 C 63 % 11.8 C
770 24-02-2021 16:05:00 19.1 C 64 % 12.14 C
771 24-02-2021 16:10:00 19.2 C 64 % 12.23 C
772 24-02-2021 16:15:00 19.2 C 64 % 12.23 C
773 24-02-2021 16:20:00 19.1 C 63 % 11.9 C
774 24-02-2021 16:25:00 19.1 C 64 % 12.14 C
775 24-02-2021 16:30:00 19 C 64 % 12.04 C
Sensor: Nr:Datum:Temp:Feuchte:Taupunkt:
Aussen-T/F 776 24-02-2021 16:35:00 18.9 C 64 % 11.95 C
777 24-02-2021 16:40:00 18.7 C 63 % 11.52 C
778 24-02-2021 16:45:00 18.6 C 65 % 11.9 C
779 24-02-2021 16:50:00 18.4 C 63 % 11.23 C
780 24-02-2021 16:55:00 18.4 C 65 % 11.71 C
781 24-02-2021 17:00:00 18.2 C 65 % 11.52 C
782 24-02-2021 17:05:00 18.1 C 66 % 11.65 C
783 24-02-2021 17:10:00 17.8 C 66 % 11.37 C
784 24-02-2021 17:15:00 17.6 C 68 % 11.63 C
785 24-02-2021 17:20:00 17.2 C 68 % 11.25 C
786 24-02-2021 17:25:00 16.9 C 69 % 11.18 C
787 24-02-2021 17:30:00 16.6 C 70 % 11.11 C
788 24-02-2021 17:35:00 16.3 C 71 % 11.04 C
789 24-02-2021 17:40:00 15.9 C 71 % 10.65 C
790 24-02-2021 17:45:00 15.7 C 72 % 10.67 C
791 24-02-2021 17:50:00 15.4 C 72 % 10.38 C
792 24-02-2021 17:55:00 15.1 C 73 % 10.3 C
793 24-02-2021 18:00:00 14.8 C 74 % 10.22 C
794 24-02-2021 18:05:00 14.6 C 74 % 10.02 C
795 24-02-2021 18:10:00 14.3 C 75 % 9.93 C
796 24-02-2021 18:15:00 14.1 C 76 % 9.94 C
797 24-02-2021 18:20:00 13.9 C 76 % 9.74 C
798 24-02-2021 18:25:00 13.7 C 77 % 9.75 C
799 24-02-2021 18:30:00 13.6 C 77 % 9.65 C
800 24-02-2021 18:35:00 13.4 C 78 % 9.65 C
Sensor: Nr:Datum:Temp:Feuchte:Taupunkt:
Aussen-T/F 801 24-02-2021 18:40:00 13.3 C 78 % 9.55 C
802 24-02-2021 18:45:00 13.1 C 79 % 9.54 C
803 24-02-2021 18:50:00 13 C 79 % 9.45 C
804 24-02-2021 18:55:00 12.9 C 79 % 9.35 C
805 24-02-2021 19:00:00 12.8 C 80 % 9.44 C
806 24-02-2021 19:05:00 12.7 C 80 % 9.34 C
807 24-02-2021 19:10:00 12.5 C 80 % 9.15 C
808 24-02-2021 19:15:00 12.4 C 81 % 9.23 C
809 24-02-2021 19:20:00 12.2 C 81 % 9.04 C
810 24-02-2021 19:25:00 12.1 C 82 % 9.12 C
811 24-02-2021 19:30:00 11.9 C 82 % 8.93 C
812 24-02-2021 19:35:00 11.7 C 82 % 8.73 C
813 24-02-2021 19:40:00 11.6 C 82 % 8.64 C
814 24-02-2021 19:45:00 11.4 C 83 % 8.62 C
815 24-02-2021 19:50:00 11.2 C 83 % 8.42 C
816 24-02-2021 19:55:00 11.1 C 84 % 8.5 C
817 24-02-2021 20:00:00 10.9 C 85 % 8.48 C
818 24-02-2021 20:05:00 10.7 C 85 % 8.28 C
819 24-02-2021 20:10:00 10.6 C 85 % 8.19 C
820 24-02-2021 20:15:00 10.4 C 86 % 8.16 C
821 24-02-2021 20:20:00 10.3 C 86 % 8.06 C
822 24-02-2021 20:25:00 10.2 C 86 % 7.97 C
823 24-02-2021 20:30:00 10.1 C 86 % 7.87 C
824 24-02-2021 20:35:00 9.9 C 86 % 7.67 C
825 24-02-2021 20:40:00 9.8 C 87 % 7.74 C
Sensor: Nr:Datum:Temp:Feuchte:Taupunkt:
Aussen-T/F 826 24-02-2021 20:45:00 9.6 C 87 % 7.55 C
827 24-02-2021 20:50:00 9.4 C 87 % 7.35 C
828 24-02-2021 20:55:00 9.3 C 88 % 7.42 C
829 24-02-2021 21:00:00 9.3 C 89 % 7.58 C
830 24-02-2021 21:05:00 9.2 C 89 % 7.48 C
831 24-02-2021 21:10:00 9.1 C 89 % 7.39 C
832 24-02-2021 21:15:00 9 C 89 % 7.29 C
833 24-02-2021 21:20:00 8.9 C 89 % 7.19 C
834 24-02-2021 21:25:00 8.8 C 90 % 7.25 C
835 24-02-2021 21:30:00 8.7 C 90 % 7.15 C
836 24-02-2021 21:35:00 8.7 C 90 % 7.15 C
837 24-02-2021 21:40:00 8.6 C 91 % 7.22 C
838 24-02-2021 21:45:00 8.6 C 91 % 7.22 C
839 24-02-2021 21:50:00 8.6 C 91 % 7.22 C
840 24-02-2021 21:55:00 8.4 C 91 % 7.02 C
841 24-02-2021 22:00:00 8.3 C 91 % 6.92 C
842 24-02-2021 22:05:00 8.3 C 91 % 6.92 C
843 24-02-2021 22:10:00 8.3 C 92 % 7.08 C
844 24-02-2021 22:15:00 8.3 C 92 % 7.08 C
845 24-02-2021 22:20:00 8.2 C 92 % 6.98 C
846 24-02-2021 22:25:00 8.2 C 92 % 6.98 C
847 24-02-2021 22:30:00 8.1 C 92 % 6.88 C
848 24-02-2021 22:35:00 8 C 92 % 6.78 C
849 24-02-2021 22:40:00 7.9 C 92 % 6.68 C
850 24-02-2021 22:45:00 7.8 C 92 % 6.58 C
Sensor: Nr:Datum:Temp:Feuchte:Taupunkt:
Aussen-T/F 851 24-02-2021 22:50:00 7.7 C 92 % 6.48 C
852 24-02-2021 22:55:00 7.6 C 92 % 6.39 C
853 24-02-2021 23:00:00 7.6 C 93 % 6.54 C
854 24-02-2021 23:05:00 7.7 C 93 % 6.64 C
855 24-02-2021 23:10:00 7.7 C 93 % 6.64 C
856 24-02-2021 23:15:00 7.5 C 93 % 6.44 C
857 24-02-2021 23:20:00 7.4 C 93 % 6.34 C
858 24-02-2021 23:25:00 7.4 C 93 % 6.34 C
859 24-02-2021 23:30:00 7.3 C 93 % 6.25 C
860 24-02-2021 23:35:00 7.2 C 93 % 6.15 C
861 24-02-2021 23:40:00 7.1 C 93 % 6.05 C
862 24-02-2021 23:45:00 7.1 C 93 % 6.05 C
863 24-02-2021 23:50:00 7.1 C 93 % 6.05 C
864 24-02-2021 23:55:00 6.9 C 93 % 5.85 C
865 25-02-2021 00:00:00 6.8 C 93 % 5.75 C
866 25-02-2021 00:05:00 6.8 C 93 % 5.75 C
867 25-02-2021 00:10:00 6.7 C 94 % 5.8 C
868 25-02-2021 00:15:00 6.6 C 94 % 5.71 C
869 25-02-2021 00:20:00 6.5 C 93 % 5.45 C
870 25-02-2021 00:25:00 6.5 C 94 % 5.61 C
871 25-02-2021 00:30:00 6.5 C 94 % 5.61 C
872 25-02-2021 00:35:00 6.6 C 94 % 5.71 C
873 25-02-2021 00:40:00 6.6 C 94 % 5.71 C
874 25-02-2021 00:45:00 6.6 C 94 % 5.71 C
875 25-02-2021 00:50:00 6.5 C 94 % 5.61 C
Sensor: Nr:Datum:Temp:Feuchte:Taupunkt:
Aussen-T/F 876 25-02-2021 00:55:00 6.6 C 95 % 5.86 C
877 25-02-2021 01:00:00 6.7 C 95 % 5.96 C
878 25-02-2021 01:05:00 6.7 C 95 % 5.96 C
879 25-02-2021 01:10:00 6.6 C 95 % 5.86 C
880 25-02-2021 01:15:00 6.5 C 95 % 5.76 C
881 25-02-2021 01:20:00 6.4 C 94 % 5.51 C
882 25-02-2021 01:25:00 6.2 C 94 % 5.31 C
883 25-02-2021 01:30:00 6.1 C 94 % 5.21 C
884 25-02-2021 01:35:00 6 C 94 % 5.11 C
885 25-02-2021 01:40:00 5.8 C 94 % 4.91 C
886 25-02-2021 01:45:00 5.7 C 94 % 4.81 C
887 25-02-2021 01:50:00 5.6 C 94 % 4.71 C
888 25-02-2021 01:55:00 5.6 C 94 % 4.71 C
889 25-02-2021 02:00:00 5.6 C 95 % 4.86 C
890 25-02-2021 02:05:00 5.7 C 95 % 4.96 C
891 25-02-2021 02:10:00 5.8 C 95 % 5.06 C
892 25-02-2021 02:15:00 5.8 C 95 % 5.06 C
893 25-02-2021 02:20:00 5.7 C 95 % 4.96 C
894 25-02-2021 02:25:00 5.6 C 95 % 4.86 C
895 25-02-2021 02:30:00 5.6 C 95 % 4.86 C
896 25-02-2021 02:35:00 5.6 C 95 % 4.86 C
897 25-02-2021 02:40:00 5.6 C 95 % 4.86 C
898 25-02-2021 02:45:00 5.5 C 95 % 4.76 C
899 25-02-2021 02:50:00 5.5 C 95 % 4.76 C
900 25-02-2021 02:55:00 5.4 C 95 % 4.66 C
Sensor: Nr:Datum:Temp:Feuchte:Taupunkt:
Aussen-T/F 901 25-02-2021 03:00:00 5.4 C 95 % 4.66 C
902 25-02-2021 03:05:00 5.4 C 95 % 4.66 C
903 25-02-2021 03:10:00 5.3 C 95 % 4.57 C
904 25-02-2021 03:15:00 5.2 C 95 % 4.47 C
905 25-02-2021 03:20:00 5.3 C 95 % 4.57 C
906 25-02-2021 03:25:00 5.3 C 95 % 4.57 C
907 25-02-2021 03:30:00 5.3 C 95 % 4.57 C
908 25-02-2021 03:35:00 5.2 C 95 % 4.47 C
909 25-02-2021 03:40:00 5.1 C 95 % 4.37 C
910 25-02-2021 03:45:00 5 C 95 % 4.27 C
911 25-02-2021 03:50:00 4.9 C 95 % 4.17 C
912 25-02-2021 03:55:00 4.9 C 95 % 4.17 C
913 25-02-2021 04:00:00 4.8 C 95 % 4.07 C
914 25-02-2021 04:05:00 4.7 C 95 % 3.97 C
915 25-02-2021 04:10:00 4.6 C 95 % 3.87 C
916 25-02-2021 04:15:00 4.5 C 95 % 3.77 C
917 25-02-2021 04:20:00 4.5 C 95 % 3.77 C
918 25-02-2021 04:25:00 4.4 C 95 % 3.67 C
919 25-02-2021 04:30:00 4.5 C 95 % 3.77 C
920 25-02-2021 04:35:00 4.4 C 95 % 3.67 C
921 25-02-2021 04:40:00 4.3 C 95 % 3.57 C
922 25-02-2021 04:45:00 4.3 C 95 % 3.57 C
923 25-02-2021 04:50:00 4.3 C 95 % 3.57 C
924 25-02-2021 04:55:00 4.4 C 95 % 3.67 C
925 25-02-2021 05:00:00 4.4 C 95 % 3.67 C
Sensor: Nr:Datum:Temp:Feuchte:Taupunkt:
Aussen-T/F 926 25-02-2021 05:05:00 4.4 C 96 % 3.82 C
927 25-02-2021 05:10:00 4.4 C 96 % 3.82 C
928 25-02-2021 05:15:00 4.4 C 96 % 3.82 C
929 25-02-2021 05:20:00 4.3 C 95 % 3.57 C
930 25-02-2021 05:25:00 4.3 C 96 % 3.72 C
931 25-02-2021 05:30:00 4.2 C 96 % 3.62 C
932 25-02-2021 05:35:00 4.2 C 96 % 3.62 C
933 25-02-2021 05:40:00 4.1 C 95 % 3.37 C
934 25-02-2021 05:45:00 3.9 C 95 % 3.17 C
935 25-02-2021 05:50:00 3.8 C 95 % 3.07 C
936 25-02-2021 05:55:00 3.7 C 95 % 2.98 C
937 25-02-2021 06:00:00 3.7 C 95 % 2.98 C
938 25-02-2021 06:05:00 3.7 C 96 % 3.12 C
939 25-02-2021 06:10:00 3.7 C 96 % 3.12 C
940 25-02-2021 06:15:00 3.7 C 96 % 3.12 C
941 25-02-2021 06:20:00 3.8 C 96 % 3.22 C
942 25-02-2021 06:25:00 3.9 C 96 % 3.32 C
943 25-02-2021 06:30:00 3.9 C 96 % 3.32 C
944 25-02-2021 06:35:00 3.9 C 96 % 3.32 C
945 25-02-2021 06:40:00 3.8 C 96 % 3.22 C
946 25-02-2021 06:45:00 3.7 C 96 % 3.12 C
947 25-02-2021 06:50:00 3.7 C 96 % 3.12 C
948 25-02-2021 06:55:00 3.7 C 96 % 3.12 C
949 25-02-2021 07:00:00 3.7 C 96 % 3.12 C
950 25-02-2021 07:05:00 3.5 C 96 % 2.92 C
Sensor: Nr:Datum:Temp:Feuchte:Taupunkt:
Aussen-T/F 951 25-02-2021 07:10:00 3.4 C 96 % 2.82 C
952 25-02-2021 07:15:00 3.3 C 96 % 2.72 C
953 25-02-2021 07:20:00 3.3 C 96 % 2.72 C
954 25-02-2021 07:25:00 3.3 C 96 % 2.72 C
955 25-02-2021 07:30:00 3.3 C 96 % 2.72 C
956 25-02-2021 07:35:00 3.2 C 96 % 2.63 C
957 25-02-2021 07:40:00 3.2 C 96 % 2.63 C
958 25-02-2021 07:45:00 3.2 C 96 % 2.63 C
959 25-02-2021 07:50:00 3.3 C 96 % 2.72 C
960 25-02-2021 07:55:00 3.3 C 96 % 2.72 C
961 25-02-2021 08:00:00 3.4 C 96 % 2.82 C
962 25-02-2021 08:05:00 3.5 C 96 % 2.92 C
963 25-02-2021 08:10:00 3.5 C 96 % 2.92 C
964 25-02-2021 08:15:00 3.6 C 96 % 3.02 C
965 25-02-2021 08:20:00 3.7 C 96 % 3.12 C
966 25-02-2021 08:25:00 3.8 C 97 % 3.37 C
967 25-02-2021 08:30:00 3.9 C 96 % 3.32 C
968 25-02-2021 08:35:00 3.9 C 96 % 3.32 C
969 25-02-2021 08:40:00 3.9 C 96 % 3.32 C
970 25-02-2021 08:45:00 3.9 C 96 % 3.32 C
971 25-02-2021 08:50:00 3.9 C 96 % 3.32 C
972 25-02-2021 08:55:00 3.9 C 96 % 3.32 C
973 25-02-2021 09:00:00 3.9 C 96 % 3.32 C
974 25-02-2021 09:05:00 3.9 C 96 % 3.32 C
975 25-02-2021 09:10:00 4 C 96 % 3.42 C
Sensor: Nr:Datum:Temp:Feuchte:Taupunkt:
Aussen-T/F 976 25-02-2021 09:15:00 4.1 C 97 % 3.67 C
977 25-02-2021 09:20:00 4.2 C 97 % 3.77 C
978 25-02-2021 09:25:00 4.4 C 97 % 3.97 C
979 25-02-2021 09:30:00 4.6 C 97 % 4.17 C
980 25-02-2021 09:35:00 4.8 C 97 % 4.37 C
981 25-02-2021 09:40:00 5 C 97 % 4.56 C
982 25-02-2021 09:45:00 5.2 C 97 % 4.76 C
983 25-02-2021 09:50:00 5.3 C 97 % 4.86 C
984 25-02-2021 09:55:00 5.4 C 97 % 4.96 C
985 25-02-2021 10:00:00 5.5 C 97 % 5.06 C
986 25-02-2021 10:05:00 5.6 C 97 % 5.16 C
987 25-02-2021 10:10:00 5.7 C 97 % 5.26 C
988 25-02-2021 10:15:00 5.9 C 97 % 5.46 C
989 25-02-2021 10:20:00 6 C 97 % 5.56 C
990 25-02-2021 10:25:00 6.2 C 97 % 5.76 C
991 25-02-2021 10:30:00 6.3 C 97 % 5.86 C
992 25-02-2021 10:35:00 6.5 C 97 % 6.06 C
993 25-02-2021 10:40:00 6.8 C 97 % 6.36 C
994 25-02-2021 10:45:00 7.2 C 97 % 6.76 C
995 25-02-2021 10:50:00 7.4 C 97 % 6.96 C
996 25-02-2021 10:55:00 7.7 C 98 % 7.4 C
997 25-02-2021 11:00:00 7.9 C 98 % 7.6 C
998 25-02-2021 11:05:00 8.2 C 97 % 7.75 C
999 25-02-2021 11:10:00 8.4 C 97 % 7.95 C
1000 25-02-2021 11:15:00 8.7 C 98 % 8.4 C
Sensor: Nr:Datum:Temp:Feuchte:Taupunkt:
Aussen-T/F 1001 25-02-2021 11:20:00 8.9 C 98 % 8.6 C
1002 25-02-2021 11:25:00 9.2 C 97 % 8.75 C
1003 25-02-2021 11:30:00 9.4 C 97 % 8.95 C
1004 25-02-2021 11:35:00 9.7 C 98 % 9.4 C
1005 25-02-2021 11:40:00 9.8 C 97 % 9.35 C
1006 25-02-2021 11:45:00 10 C 97 % 9.55 C
1007 25-02-2021 11:50:00 10.3 C 95 % 9.54 C
1008 25-02-2021 11:55:00 10.6 C 93 % 9.52 C
1009 25-02-2021 12:00:00 11 C 89 % 9.26 C
1010 25-02-2021 12:05:00 11.6 C 87 % 9.51 C
1011 25-02-2021 12:10:00 12.1 C 83 % 9.3 C
1012 25-02-2021 12:15:00 12.7 C 80 % 9.34 C
1013 25-02-2021 12:20:00 13.3 C 78 % 9.55 C
1014 25-02-2021 12:25:00 13.7 C 75 % 9.35 C
1015 25-02-2021 12:30:00 14.2 C 70 % 8.81 C
1016 25-02-2021 12:35:00 14.7 C 69 % 9.08 C
1017 25-02-2021 12:40:00 15.2 C 68 % 9.34 C
1018 25-02-2021 12:45:00 15.7 C 67 % 9.6 C
1019 25-02-2021 12:50:00 16.1 C 63 % 9.06 C
1020 25-02-2021 12:55:00 16.4 C 61 % 8.87 C
1021 25-02-2021 13:00:00 16.6 C 64 % 9.77 C
1022 25-02-2021 13:05:00 16.8 C 63 % 9.72 C
1023 25-02-2021 13:10:00 16.9 C 59 % 8.84 C
1024 25-02-2021 13:15:00 17.2 C 60 % 9.37 C
1025 25-02-2021 13:20:00 17.3 C 60 % 9.47 C
Sensor: Nr:Datum:Temp:Feuchte:Taupunkt:
Aussen-T/F 1026 25-02-2021 13:25:00 17.5 C 57 % 8.9 C
1027 25-02-2021 13:30:00 17.7 C 58 % 9.34 C
1028 25-02-2021 13:35:00 17.8 C 58 % 9.43 C
1029 25-02-2021 13:40:00 18.1 C 58 % 9.71 C
1030 25-02-2021 13:45:00 18.3 C 56 % 9.38 C
1031 25-02-2021 13:50:00 18.6 C 58 % 10.18 C
1032 25-02-2021 13:55:00 18.9 C 58 % 10.46 C
1033 25-02-2021 14:00:00 19.3 C 56 % 10.31 C
1034 25-02-2021 14:05:00 19.6 C 56 % 10.59 C
1035 25-02-2021 14:10:00 19.8 C 55 % 10.51 C
1036 25-02-2021 14:15:00 20 C 52 % 9.85 C
1037 25-02-2021 14:20:00 20.1 C 52 % 9.94 C
1038 25-02-2021 14:25:00 20.2 C 50 % 9.45 C
1039 25-02-2021 14:30:00 20.3 C 50 % 9.54 C
1040 25-02-2021 14:35:00 20.3 C 49 % 9.24 C
1041 25-02-2021 14:40:00 20.1 C 48 % 8.76 C
1042 25-02-2021 14:45:00 20 C 51 % 9.56 C
1043 25-02-2021 14:50:00 19.8 C 49 % 8.79 C
1044 25-02-2021 14:55:00 19.7 C 51 % 9.29 C
1045 25-02-2021 15:00:00 19.5 C 52 % 9.39 C
1046 25-02-2021 15:05:00 19.3 C 53 % 9.49 C
1047 25-02-2021 15:10:00 19.2 C 53 % 9.4 C
1048 25-02-2021 15:15:00 19.1 C 52 % 9.02 C
1049 25-02-2021 15:20:00 19 C 53 % 9.21 C
1050 25-02-2021 15:25:00 18.9 C 53 % 9.12 C
Sensor: Nr:Datum:Temp:Feuchte:Taupunkt:
Aussen-T/F 1051 25-02-2021 15:30:00 18.8 C 52 % 8.75 C
1052 25-02-2021 15:35:00 18.8 C 53 % 9.03 C
1053 25-02-2021 15:40:00 18.8 C 52 % 8.75 C
1054 25-02-2021 15:45:00 18.8 C 53 % 9.03 C
1055 25-02-2021 15:50:00 18.8 C 52 % 8.75 C
1056 25-02-2021 15:55:00 18.7 C 51 % 8.37 C
1057 25-02-2021 16:00:00 18.8 C 51 % 8.46 C
1058 25-02-2021 16:05:00 18.8 C 52 % 8.75 C
1059 25-02-2021 16:10:00 18.8 C 52 % 8.75 C
1060 25-02-2021 16:15:00 18.8 C 50 % 8.17 C
1061 25-02-2021 16:20:00 18.8 C 50 % 8.17 C
1062 25-02-2021 16:25:00 18.7 C 51 % 8.37 C
1063 25-02-2021 16:30:00 18.7 C 49 % 7.78 C
1064 25-02-2021 16:35:00 18.6 C 51 % 8.27 C
1065 25-02-2021 16:40:00 18.4 C 51 % 8.09 C
1066 25-02-2021 16:45:00 18.2 C 50 % 7.62 C
1067 25-02-2021 16:50:00 17.9 C 51 % 7.63 C
1068 25-02-2021 16:55:00 17.7 C 52 % 7.73 C
1069 25-02-2021 17:00:00 17.4 C 49 % 6.59 C
1070 25-02-2021 17:05:00 17.2 C 54 % 7.82 C
1071 25-02-2021 17:10:00 16.8 C 56 % 7.98 C
1072 25-02-2021 17:15:00 16.4 C 57 % 7.87 C
1073 25-02-2021 17:20:00 16.1 C 57 % 7.59 C
1074 25-02-2021 17:25:00 15.7 C 59 % 7.72 C
1075 25-02-2021 17:30:00 15.4 C 59 % 7.44 C
Sensor: Nr:Datum:Temp:Feuchte:Taupunkt:
Aussen-T/F 1076 25-02-2021 17:35:00 15.2 C 60 % 7.5 C
1077 25-02-2021 17:40:00 14.9 C 61 % 7.45 C
1078 25-02-2021 17:45:00 14.6 C 62 % 7.41 C
1079 25-02-2021 17:50:00 14.4 C 62 % 7.22 C
1080 25-02-2021 17:55:00 14.2 C 63 % 7.27 C
1081 25-02-2021 18:00:00 13.9 C 64 % 7.21 C
1082 25-02-2021 18:05:00 13.7 C 64 % 7.02 C
1083 25-02-2021 18:10:00 13.6 C 65 % 7.15 C
1084 25-02-2021 18:15:00 13.3 C 66 % 7.09 C
1085 25-02-2021 18:20:00 13.1 C 66 % 6.9 C
1086 25-02-2021 18:25:00 12.9 C 66 % 6.71 C
1087 25-02-2021 18:30:00 12.7 C 67 % 6.74 C
1088 25-02-2021 18:35:00 12.6 C 67 % 6.64 C
1089 25-02-2021 18:40:00 12.4 C 68 % 6.67 C
1090 25-02-2021 18:45:00 12.3 C 68 % 6.57 C
1091 25-02-2021 18:50:00 12.2 C 68 % 6.48 C
1092 25-02-2021 18:55:00 12.1 C 68 % 6.38 C
1093 25-02-2021 19:00:00 12 C 68 % 6.29 C
1094 25-02-2021 19:05:00 11.9 C 69 % 6.4 C
1095 25-02-2021 19:10:00 11.8 C 69 % 6.31 C
1096 25-02-2021 19:15:00 11.7 C 69 % 6.21 C
1097 25-02-2021 19:20:00 11.7 C 69 % 6.21 C
1098 25-02-2021 19:25:00 11.7 C 70 % 6.42 C
1099 25-02-2021 19:30:00 11.7 C 70 % 6.42 C
1100 25-02-2021 19:35:00 11.7 C 70 % 6.42 C
Sensor: Nr:Datum:Temp:Feuchte:Taupunkt:
Aussen-T/F 1101 25-02-2021 19:40:00 11.7 C 71 % 6.62 C
1102 25-02-2021 19:45:00 11.6 C 71 % 6.53 C
1103 25-02-2021 19:50:00 11.4 C 71 % 6.34 C
1104 25-02-2021 19:55:00 11.3 C 72 % 6.44 C
1105 25-02-2021 20:00:00 11.2 C 73 % 6.55 C
1106 25-02-2021 20:05:00 11.1 C 74 % 6.65 C
1107 25-02-2021 20:10:00 10.9 C 74 % 6.45 C
1108 25-02-2021 20:15:00 10.8 C 74 % 6.36 C
1109 25-02-2021 20:20:00 10.8 C 75 % 6.55 C
1110 25-02-2021 20:25:00 10.8 C 74 % 6.36 C
1111 25-02-2021 20:30:00 10.8 C 75 % 6.55 C
1112 25-02-2021 20:35:00 10.8 C 75 % 6.55 C
1113 25-02-2021 20:40:00 10.7 C 75 % 6.46 C
1114 25-02-2021 20:45:00 10.6 C 76 % 6.55 C
1115 25-02-2021 20:50:00 10.5 C 74 % 6.07 C
1116 25-02-2021 20:55:00 10.4 C 75 % 6.17 C
1117 25-02-2021 21:00:00 10.3 C 76 % 6.26 C
1118 25-02-2021 21:05:00 10.3 C 76 % 6.26 C
1119 25-02-2021 21:10:00 10.2 C 76 % 6.16 C
1120 25-02-2021 21:15:00 10.2 C 76 % 6.16 C
1121 25-02-2021 21:20:00 10.2 C 76 % 6.16 C
1122 25-02-2021 21:25:00 10.1 C 76 % 6.07 C
1123 25-02-2021 21:30:00 10.1 C 76 % 6.07 C
1124 25-02-2021 21:35:00 10 C 76 % 5.97 C
1125 25-02-2021 21:40:00 9.9 C 76 % 5.87 C
Sensor: Nr:Datum:Temp:Feuchte:Taupunkt:
Aussen-T/F 1126 25-02-2021 21:45:00 9.8 C 76 % 5.78 C
1127 25-02-2021 21:50:00 9.7 C 76 % 5.68 C
1128 25-02-2021 21:55:00 9.6 C 76 % 5.58 C
1129 25-02-2021 22:00:00 9.5 C 76 % 5.49 C
1130 25-02-2021 22:05:00 9.4 C 77 % 5.58 C
1131 25-02-2021 22:10:00 9.3 C 77 % 5.48 C
1132 25-02-2021 22:15:00 9.2 C 77 % 5.38 C
1133 25-02-2021 22:20:00 9.1 C 77 % 5.29 C
1134 25-02-2021 22:25:00 8.8 C 78 % 5.18 C
1135 25-02-2021 22:30:00 8.6 C 78 % 4.99 C
1136 25-02-2021 22:35:00 8.4 C 80 % 5.16 C
1137 25-02-2021 22:40:00 8.3 C 81 % 5.24 C
1138 25-02-2021 22:45:00 8.2 C 81 % 5.14 C
1139 25-02-2021 22:50:00 8.2 C 81 % 5.14 C
1140 25-02-2021 22:55:00 8.1 C 81 % 5.04 C
1141 25-02-2021 23:00:00 7.9 C 81 % 4.85 C
1142 25-02-2021 23:05:00 7.7 C 82 % 4.83 C
1143 25-02-2021 23:10:00 7.6 C 83 % 4.9 C
1144 25-02-2021 23:15:00 7.4 C 83 % 4.71 C
1145 25-02-2021 23:20:00 7.3 C 83 % 4.61 C
1146 25-02-2021 23:25:00 7.2 C 84 % 4.68 C
1147 25-02-2021 23:30:00 7.2 C 85 % 4.85 C
1148 25-02-2021 23:35:00 7 C 85 % 4.66 C
1149 25-02-2021 23:40:00 6.9 C 85 % 4.56 C
1150 25-02-2021 23:45:00 6.8 C 85 % 4.46 C
Sensor: Nr:Datum:Temp:Feuchte:Taupunkt:
Aussen-T/F 1151 25-02-2021 23:50:00 6.7 C 86 % 4.53 C
1152 25-02-2021 23:55:00 6.7 C 87 % 4.69 C
1153 26-02-2021 00:00:00 6.7 C 87 % 4.69 C
1154 26-02-2021 00:05:00 6.8 C 87 % 4.79 C
1155 26-02-2021 00:10:00 6.7 C 87 % 4.69 C
1156 26-02-2021 00:15:00 6.7 C 87 % 4.69 C
1157 26-02-2021 00:20:00 6.7 C 87 % 4.69 C
1158 26-02-2021 00:25:00 6.7 C 87 % 4.69 C
1159 26-02-2021 00:30:00 6.7 C 87 % 4.69 C
1160 26-02-2021 00:35:00 6.6 C 87 % 4.6 C
1161 26-02-2021 00:40:00 6.5 C 87 % 4.5 C
1162 26-02-2021 00:45:00 6.4 C 88 % 4.56 C
1163 26-02-2021 00:50:00 6.4 C 88 % 4.56 C
1164 26-02-2021 00:55:00 6.4 C 88 % 4.56 C
1165 26-02-2021 01:00:00 6.5 C 89 % 4.82 C
1166 26-02-2021 01:05:00 6.5 C 89 % 4.82 C
1167 26-02-2021 01:10:00 6.5 C 89 % 4.82 C
1168 26-02-2021 01:15:00 6.5 C 89 % 4.82 C
1169 26-02-2021 01:20:00 6.5 C 89 % 4.82 C
1170 26-02-2021 01:25:00 6.5 C 89 % 4.82 C
1171 26-02-2021 01:30:00 6.4 C 88 % 4.56 C
1172 26-02-2021 01:35:00 6.3 C 88 % 4.46 C
1173 26-02-2021 01:40:00 6.2 C 88 % 4.36 C
1174 26-02-2021 01:45:00 6.3 C 90 % 4.78 C
1175 26-02-2021 01:50:00 6.4 C 90 % 4.88 C
Sensor: Nr:Datum:Temp:Feuchte:Taupunkt:
Aussen-T/F 1176 26-02-2021 01:55:00 6.5 C 89 % 4.82 C
1177 26-02-2021 02:00:00 6.4 C 89 % 4.72 C
1178 26-02-2021 02:05:00 6.4 C 89 % 4.72 C
1179 26-02-2021 02:10:00 6.3 C 89 % 4.62 C
1180 26-02-2021 02:15:00 6.3 C 89 % 4.62 C
1181 26-02-2021 02:20:00 6.3 C 89 % 4.62 C
1182 26-02-2021 02:25:00 6.3 C 90 % 4.78 C
1183 26-02-2021 02:30:00 6.3 C 90 % 4.78 C
1184 26-02-2021 02:35:00 6.4 C 90 % 4.88 C
1185 26-02-2021 02:40:00 6.4 C 90 % 4.88 C
1186 26-02-2021 02:45:00 6.4 C 90 % 4.88 C
1187 26-02-2021 02:50:00 6.5 C 90 % 4.98 C
1188 26-02-2021 02:55:00 6.6 C 90 % 5.08 C
1189 26-02-2021 03:00:00 6.8 C 91 % 5.44 C
1190 26-02-2021 03:05:00 6.8 C 90 % 5.28 C
1191 26-02-2021 03:10:00 6.9 C 90 % 5.38 C
1192 26-02-2021 03:15:00 6.9 C 89 % 5.22 C
1193 26-02-2021 03:20:00 7 C 89 % 5.31 C
1194 26-02-2021 03:25:00 7 C 89 % 5.31 C
1195 26-02-2021 03:30:00 7.1 C 89 % 5.41 C
1196 26-02-2021 03:35:00 7.1 C 89 % 5.41 C
1197 26-02-2021 03:40:00 7.1 C 88 % 5.25 C
1198 26-02-2021 03:45:00 7.1 C 88 % 5.25 C
1199 26-02-2021 03:50:00 7.1 C 88 % 5.25 C
1200 26-02-2021 03:55:00 7.1 C 88 % 5.25 C
Sensor: Nr:Datum:Temp:Feuchte:Taupunkt:
Aussen-T/F 1201 26-02-2021 04:00:00 7.1 C 88 % 5.25 C
1202 26-02-2021 04:05:00 7.1 C 88 % 5.25 C
1203 26-02-2021 04:10:00 7.2 C 89 % 5.51 C
1204 26-02-2021 04:15:00 7.3 C 89 % 5.61 C
1205 26-02-2021 04:20:00 7.3 C 88 % 5.45 C
1206 26-02-2021 04:25:00 7.3 C 88 % 5.45 C
1207 26-02-2021 04:30:00 7.2 C 88 % 5.35 C
1208 26-02-2021 04:35:00 7.2 C 88 % 5.35 C
1209 26-02-2021 04:40:00 7.2 C 88 % 5.35 C
1210 26-02-2021 04:45:00 7.2 C 88 % 5.35 C
1211 26-02-2021 04:50:00 7.3 C 88 % 5.45 C
1212 26-02-2021 04:55:00 7.3 C 89 % 5.61 C
1213 26-02-2021 05:00:00 7.4 C 89 % 5.71 C
1214 26-02-2021 05:05:00 7.5 C 89 % 5.81 C
1215 26-02-2021 05:10:00 7.6 C 89 % 5.91 C
1216 26-02-2021 05:15:00 7.6 C 88 % 5.74 C
1217 26-02-2021 05:20:00 7.7 C 88 % 5.84 C
1218 26-02-2021 05:25:00 7.7 C 88 % 5.84 C
1219 26-02-2021 05:30:00 7.7 C 87 % 5.68 C
1220 26-02-2021 05:35:00 7.7 C 88 % 5.84 C
1221 26-02-2021 05:40:00 7.7 C 87 % 5.68 C
1222 26-02-2021 05:45:00 7.7 C 87 % 5.68 C
1223 26-02-2021 05:50:00 7.7 C 88 % 5.84 C
1224 26-02-2021 05:55:00 7.7 C 87 % 5.68 C
1225 26-02-2021 06:00:00 7.7 C 88 % 5.84 C
Sensor: Nr:Datum:Temp:Feuchte:Taupunkt:
Aussen-T/F 1226 26-02-2021 06:05:00 7.8 C 88 % 5.94 C
1227 26-02-2021 06:10:00 7.8 C 88 % 5.94 C
1228 26-02-2021 06:15:00 7.8 C 87 % 5.78 C
1229 26-02-2021 06:20:00 7.8 C 87 % 5.78 C
1230 26-02-2021 06:25:00 7.8 C 87 % 5.78 C
1231 26-02-2021 06:30:00 7.8 C 87 % 5.78 C
1232 26-02-2021 06:35:00 7.7 C 87 % 5.68 C
1233 26-02-2021 06:40:00 8.1 C 91 % 6.72 C
1234 26-02-2021 06:45:00 8.6 C 92 % 7.38 C
1235 26-02-2021 06:50:00 8.7 C 92 % 7.47 C
1236 26-02-2021 06:55:00 8.8 C 91 % 7.41 C
1237 26-02-2021 07:00:00 8.8 C 90 % 7.25 C
1238 26-02-2021 07:05:00 8.7 C 90 % 7.15 C
1239 26-02-2021 07:10:00 8.7 C 90 % 7.15 C
1240 26-02-2021 07:15:00 8.6 C 90 % 7.06 C
1241 26-02-2021 07:20:00 8.5 C 90 % 6.96 C
1242 26-02-2021 07:25:00 8.4 C 90 % 6.86 C
1243 26-02-2021 07:30:00 8.3 C 90 % 6.76 C
1244 26-02-2021 07:35:00 8.3 C 90 % 6.76 C
1245 26-02-2021 07:40:00 8.2 C 90 % 6.66 C
1246 26-02-2021 07:45:00 8.1 C 90 % 6.56 C
1247 26-02-2021 07:50:00 8 C 90 % 6.46 C
1248 26-02-2021 07:55:00 8 C 90 % 6.46 C
1249 26-02-2021 08:00:00 7.9 C 90 % 6.36 C
1250 26-02-2021 08:05:00 7.9 C 90 % 6.36 C
Sensor: Nr:Datum:Temp:Feuchte:Taupunkt:
Aussen-T/F 1251 26-02-2021 08:10:00 7.8 C 90 % 6.27 C
1252 26-02-2021 08:15:00 7.8 C 90 % 6.27 C
1253 26-02-2021 08:20:00 7.8 C 90 % 6.27 C
1254 26-02-2021 08:25:00 7.8 C 90 % 6.27 C
1255 26-02-2021 08:30:00 7.8 C 90 % 6.27 C
1256 26-02-2021 08:35:00 7.8 C 90 % 6.27 C
1257 26-02-2021 08:40:00 7.8 C 90 % 6.27 C
1258 26-02-2021 08:45:00 7.8 C 90 % 6.27 C
1259 26-02-2021 08:50:00 7.8 C 91 % 6.43 C
1260 26-02-2021 08:55:00 7.6 C 91 % 6.23 C
1261 26-02-2021 09:00:00 7.5 C 91 % 6.13 C
1262 26-02-2021 09:05:00 7.4 C 91 % 6.03 C
1263 26-02-2021 09:10:00 7.3 C 91 % 5.93 C
1264 26-02-2021 09:15:00 7.3 C 91 % 5.93 C
1265 26-02-2021 09:20:00 7.2 C 91 % 5.83 C
1266 26-02-2021 09:25:00 7 C 90 % 5.48 C
1267 26-02-2021 09:30:00 6.9 C 90 % 5.38 C
1268 26-02-2021 09:35:00 6.8 C 90 % 5.28 C
1269 26-02-2021 09:40:00 6.7 C 90 % 5.18 C
1270 26-02-2021 09:45:00 6.6 C 90 % 5.08 C
1271 26-02-2021 09:50:00 6.6 C 90 % 5.08 C
1272 26-02-2021 09:55:00 6.6 C 91 % 5.24 C
1273 26-02-2021 10:00:00 6.6 C 91 % 5.24 C
1274 26-02-2021 10:05:00 6.6 C 91 % 5.24 C
1275 26-02-2021 10:10:00 6.6 C 92 % 5.4 C
Sensor: Nr:Datum:Temp:Feuchte:Taupunkt:
Aussen-T/F 1276 26-02-2021 10:15:00 6.6 C 92 % 5.4 C
1277 26-02-2021 10:20:00 6.6 C 92 % 5.4 C
1278 26-02-2021 10:25:00 6.6 C 92 % 5.4 C
1279 26-02-2021 10:30:00 6.6 C 92 % 5.4 C
1280 26-02-2021 10:35:00 6.6 C 92 % 5.4 C
1281 26-02-2021 10:40:00 6.7 C 92 % 5.49 C
1282 26-02-2021 10:45:00 6.7 C 93 % 5.65 C
1283 26-02-2021 10:50:00 6.7 C 93 % 5.65 C
1284 26-02-2021 10:55:00 6.7 C 93 % 5.65 C
1285 26-02-2021 11:00:00 6.8 C 93 % 5.75 C
1286 26-02-2021 11:05:00 6.8 C 93 % 5.75 C
1287 26-02-2021 11:10:00 6.8 C 93 % 5.75 C
1288 26-02-2021 11:15:00 6.8 C 93 % 5.75 C
1289 26-02-2021 11:20:00 6.8 C 93 % 5.75 C
1290 26-02-2021 11:25:00 6.8 C 92 % 5.59 C
1291 26-02-2021 11:30:00 6.8 C 93 % 5.75 C
1292 26-02-2021 11:35:00 6.8 C 93 % 5.75 C
1293 26-02-2021 11:40:00 6.8 C 93 % 5.75 C
1294 26-02-2021 11:45:00 6.8 C 93 % 5.75 C
1295 26-02-2021 11:50:00 6.8 C 93 % 5.75 C
1296 26-02-2021 11:55:00 6.9 C 93 % 5.85 C
1297 26-02-2021 12:00:00 6.8 C 93 % 5.75 C
1298 26-02-2021 12:05:00 6.8 C 93 % 5.75 C
1299 26-02-2021 12:10:00 6.8 C 93 % 5.75 C
1300 26-02-2021 12:15:00 6.8 C 93 % 5.75 C
Sensor: Nr:Datum:Temp:Feuchte:Taupunkt:
Aussen-T/F 1301 26-02-2021 12:20:00 6.9 C 93 % 5.85 C
1302 26-02-2021 12:25:00 7.1 C 94 % 6.2 C
1303 26-02-2021 12:30:00 7.2 C 94 % 6.3 C
1304 26-02-2021 12:35:00 7.2 C 93 % 6.15 C
1305 26-02-2021 12:40:00 7.3 C 94 % 6.4 C
1306 26-02-2021 12:45:00 7.2 C 93 % 6.15 C
1307 26-02-2021 12:50:00 7.1 C 93 % 6.05 C
1308 26-02-2021 12:55:00 7.1 C 92 % 5.89 C
1309 26-02-2021 13:00:00 7 C 92 % 5.79 C
1310 26-02-2021 13:05:00 7 C 92 % 5.79 C
1311 26-02-2021 13:10:00 7.1 C 92 % 5.89 C
1312 26-02-2021 13:15:00 7.2 C 92 % 5.99 C
1313 26-02-2021 13:20:00 7.3 C 93 % 6.25 C
1314 26-02-2021 13:25:00 7.4 C 92 % 6.19 C
1315 26-02-2021 13:30:00 7.6 C 92 % 6.39 C
1316 26-02-2021 13:35:00 7.8 C 92 % 6.58 C
1317 26-02-2021 13:40:00 7.8 C 91 % 6.43 C
1318 26-02-2021 13:45:00 7.9 C 92 % 6.68 C
1319 26-02-2021 13:50:00 8 C 92 % 6.78 C
1320 26-02-2021 13:55:00 8 C 90 % 6.46 C
1321 26-02-2021 14:00:00 8 C 90 % 6.46 C
1322 26-02-2021 14:05:00 8 C 89 % 6.3 C
1323 26-02-2021 14:10:00 8.1 C 89 % 6.4 C
1324 26-02-2021 14:15:00 8.2 C 90 % 6.66 C
1325 26-02-2021 14:20:00 8.3 C 90 % 6.76 C
Sensor: Nr:Datum:Temp:Feuchte:Taupunkt:
Aussen-T/F 1326 26-02-2021 14:25:00 8.4 C 89 % 6.7 C
1327 26-02-2021 14:30:00 8.4 C 88 % 6.53 C
1328 26-02-2021 14:35:00 8.6 C 89 % 6.89 C
1329 26-02-2021 14:40:00 8.7 C 89 % 6.99 C
1330 26-02-2021 14:45:00 8.8 C 89 % 7.09 C
1331 26-02-2021 14:50:00 8.9 C 89 % 7.19 C
1332 26-02-2021 14:55:00 8.9 C 89 % 7.19 C
1333 26-02-2021 15:00:00 8.9 C 88 % 7.02 C
1334 26-02-2021 15:05:00 8.8 C 88 % 6.93 C
1335 26-02-2021 15:10:00 8.7 C 89 % 6.99 C
1336 26-02-2021 15:15:00 8.7 C 89 % 6.99 C
1337 26-02-2021 15:20:00 8.7 C 89 % 6.99 C
1338 26-02-2021 15:25:00 8.7 C 89 % 6.99 C
1339 26-02-2021 15:30:00 8.7 C 89 % 6.99 C
1340 26-02-2021 15:35:00 8.8 C 89 % 7.09 C
1341 26-02-2021 15:40:00 8.8 C 89 % 7.09 C
1342 26-02-2021 15:45:00 8.8 C 89 % 7.09 C
1343 26-02-2021 15:50:00 8.8 C 89 % 7.09 C
1344 26-02-2021 15:55:00 8.8 C 88 % 6.93 C
1345 26-02-2021 16:00:00 8.8 C 88 % 6.93 C
1346 26-02-2021 16:05:00 8.8 C 88 % 6.93 C
1347 26-02-2021 16:10:00 8.9 C 87 % 6.86 C
1348 26-02-2021 16:15:00 9.1 C 86 % 6.89 C
1349 26-02-2021 16:20:00 9.1 C 83 % 6.37 C
1350 26-02-2021 16:25:00 9.3 C 82 % 6.39 C
Sensor: Nr:Datum:Temp:Feuchte:Taupunkt:
Aussen-T/F 1351 26-02-2021 16:30:00 9.3 C 80 % 6.03 C
1352 26-02-2021 16:35:00 9.5 C 79 % 6.05 C
1353 26-02-2021 16:40:00 9.5 C 77 % 5.68 C
1354 26-02-2021 16:45:00 9.6 C 77 % 5.77 C
1355 26-02-2021 16:50:00 9.8 C 76 % 5.78 C
1356 26-02-2021 16:55:00 9.8 C 76 % 5.78 C
1357 26-02-2021 17:00:00 10 C 78 % 6.35 C
1358 26-02-2021 17:05:00 9.9 C 75 % 5.68 C
1359 26-02-2021 17:10:00 9.9 C 77 % 6.06 C
1360 26-02-2021 17:15:00 9.8 C 76 % 5.78 C
1361 26-02-2021 17:20:00 9.6 C 75 % 5.39 C
1362 26-02-2021 17:25:00 9.5 C 74 % 5.1 C
1363 26-02-2021 17:30:00 9.3 C 73 % 4.72 C
1364 26-02-2021 17:35:00 9.1 C 70 % 3.93 C
1365 26-02-2021 17:40:00 9 C 75 % 4.81 C
1366 26-02-2021 17:45:00 8.8 C 73 % 4.24 C
1367 26-02-2021 17:50:00 8.7 C 72 % 3.94 C
1368 26-02-2021 17:55:00 8.6 C 73 % 4.04 C
1369 26-02-2021 18:00:00 8.4 C 75 % 4.23 C
1370 26-02-2021 18:05:00 8.2 C 74 % 3.85 C
1371 26-02-2021 18:10:00 8.1 C 75 % 3.94 C
1372 26-02-2021 18:15:00 7.8 C 76 % 3.84 C
1373 26-02-2021 18:20:00 7.4 C 76 % 3.45 C
1374 26-02-2021 18:25:00 7.3 C 76 % 3.36 C
1375 26-02-2021 18:30:00 7.1 C 77 % 3.35 C
Sensor: Nr:Datum:Temp:Feuchte:Taupunkt:
Aussen-T/F 1376 26-02-2021 18:35:00 7.1 C 78 % 3.53 C
1377 26-02-2021 18:40:00 7 C 79 % 3.61 C
1378 26-02-2021 18:45:00 6.9 C 80 % 3.7 C
1379 26-02-2021 18:50:00 6.9 C 81 % 3.87 C
1380 26-02-2021 18:55:00 6.8 C 81 % 3.77 C
1381 26-02-2021 19:00:00 6.8 C 82 % 3.95 C
1382 26-02-2021 19:05:00 6.8 C 82 % 3.95 C
1383 26-02-2021 19:10:00 6.7 C 81 % 3.68 C
1384 26-02-2021 19:15:00 6.6 C 81 % 3.58 C
1385 26-02-2021 19:20:00 6.6 C 82 % 3.75 C
1386 26-02-2021 19:25:00 6.5 C 83 % 3.83 C
1387 26-02-2021 19:30:00 6.5 C 84 % 4 C
1388 26-02-2021 19:35:00 6.4 C 83 % 3.73 C
1389 26-02-2021 19:40:00 6.3 C 83 % 3.63 C
1390 26-02-2021 19:45:00 6.3 C 83 % 3.63 C
1391 26-02-2021 19:50:00 6.3 C 85 % 3.97 C
1392 26-02-2021 19:55:00 6.3 C 85 % 3.97 C
1393 26-02-2021 20:00:00 6.3 C 86 % 4.14 C
1394 26-02-2021 20:05:00 6.3 C 86 % 4.14 C
1395 26-02-2021 20:10:00 6.3 C 86 % 4.14 C
1396 26-02-2021 20:15:00 6.2 C 86 % 4.04 C
1397 26-02-2021 20:20:00 6.2 C 86 % 4.04 C
1398 26-02-2021 20:25:00 6.2 C 87 % 4.2 C
1399 26-02-2021 20:30:00 6.2 C 87 % 4.2 C
1400 26-02-2021 20:35:00 6.2 C 87 % 4.2 C
Sensor: Nr:Datum:Temp:Feuchte:Taupunkt:
Aussen-T/F 1401 26-02-2021 20:40:00 6.2 C 87 % 4.2 C
1402 26-02-2021 20:45:00 6.2 C 88 % 4.36 C
1403 26-02-2021 20:50:00 6.2 C 88 % 4.36 C
1404 26-02-2021 20:55:00 6.2 C 88 % 4.36 C
1405 26-02-2021 21:00:00 6.1 C 88 % 4.27 C
1406 26-02-2021 21:05:00 6.1 C 87 % 4.1 C
1407 26-02-2021 21:10:00 6.1 C 87 % 4.1 C
1408 26-02-2021 21:15:00 5.9 C 87 % 3.91 C
1409 26-02-2021 21:20:00 5.8 C 87 % 3.81 C
1410 26-02-2021 21:25:00 5.7 C 87 % 3.71 C
1411 26-02-2021 21:30:00 5.4 C 87 % 3.41 C
1412 26-02-2021 21:35:00 5.3 C 87 % 3.32 C
1413 26-02-2021 21:40:00 5.1 C 87 % 3.12 C
1414 26-02-2021 21:45:00 4.9 C 87 % 2.92 C
1415 26-02-2021 21:50:00 4.7 C 88 % 2.89 C
1416 26-02-2021 21:55:00 4.6 C 88 % 2.79 C
1417 26-02-2021 22:00:00 4.5 C 89 % 2.85 C
1418 26-02-2021 22:05:00 4.4 C 89 % 2.75 C
1419 26-02-2021 22:10:00 4.2 C 89 % 2.55 C
1420 26-02-2021 22:15:00 4.1 C 89 % 2.45 C
1421 26-02-2021 22:20:00 3.9 C 89 % 2.26 C
1422 26-02-2021 22:25:00 3.8 C 89 % 2.16 C
1423 26-02-2021 22:30:00 3.6 C 89 % 1.96 C
1424 26-02-2021 22:35:00 3.4 C 90 % 1.92 C
1425 26-02-2021 22:40:00 3.3 C 90 % 1.82 C
Sensor: Nr:Datum:Temp:Feuchte:Taupunkt:
Aussen-T/F 1426 26-02-2021 22:45:00 3.2 C 90 % 1.72 C
1427 26-02-2021 22:50:00 3.2 C 91 % 1.88 C
1428 26-02-2021 22:55:00 3.2 C 91 % 1.88 C
1429 26-02-2021 23:00:00 3.2 C 91 % 1.88 C
1430 26-02-2021 23:05:00 3.1 C 91 % 1.78 C
1431 26-02-2021 23:10:00 2.9 C 91 % 1.58 C
1432 26-02-2021 23:15:00 2.8 C 91 % 1.48 C
1433 26-02-2021 23:20:00 2.6 C 91 % 1.28 C
1434 26-02-2021 23:25:00 2.5 C 91 % 1.18 C
1435 26-02-2021 23:30:00 2.4 C 91 % 1.08 C
1436 26-02-2021 23:35:00 2.4 C 92 % 1.24 C
1437 26-02-2021 23:40:00 2.3 C 92 % 1.14 C
1438 26-02-2021 23:45:00 2.2 C 92 % 1.04 C
1439 26-02-2021 23:50:00 2.2 C 92 % 1.04 C
1440 26-02-2021 23:55:00 2.1 C 92 % 0.94 C
1441 27-02-2021 00:00:00 2 C 92 % 0.84 C
1442 27-02-2021 00:05:00 1.9 C 93 % 0.89 C
1443 27-02-2021 00:10:00 1.9 C 93 % 0.89 C
1444 27-02-2021 00:15:00 1.9 C 93 % 0.89 C
1445 27-02-2021 00:20:00 1.8 C 93 % 0.79 C
1446 27-02-2021 00:25:00 1.8 C 93 % 0.79 C
1447 27-02-2021 00:30:00 1.7 C 93 % 0.69 C
1448 27-02-2021 00:35:00 1.7 C 93 % 0.69 C
1449 27-02-2021 00:40:00 1.7 C 93 % 0.69 C
1450 27-02-2021 00:45:00 1.7 C 94 % 0.84 C
Sensor: Nr:Datum:Temp:Feuchte:Taupunkt:
Aussen-T/F 1451 27-02-2021 00:50:00 1.7 C 94 % 0.84 C
1452 27-02-2021 00:55:00 1.7 C 94 % 0.84 C
1453 27-02-2021 01:00:00 1.7 C 94 % 0.84 C
1454 27-02-2021 01:05:00 1.6 C 94 % 0.74 C
1455 27-02-2021 01:10:00 1.6 C 94 % 0.74 C
1456 27-02-2021 01:15:00 1.5 C 94 % 0.64 C
1457 27-02-2021 01:20:00 1.4 C 94 % 0.54 C
1458 27-02-2021 01:25:00 1.4 C 94 % 0.54 C
1459 27-02-2021 01:30:00 1.3 C 94 % 0.44 C
1460 27-02-2021 01:35:00 1.3 C 94 % 0.44 C
1461 27-02-2021 01:40:00 1.3 C 94 % 0.44 C
1462 27-02-2021 01:45:00 1.2 C 94 % 0.34 C
1463 27-02-2021 01:50:00 1.2 C 94 % 0.34 C
1464 27-02-2021 01:55:00 1.1 C 94 % 0.24 C
1465 27-02-2021 02:00:00 1.1 C 94 % 0.24 C
1466 27-02-2021 02:05:00 1 C 94 % 0.15 C
1467 27-02-2021 02:10:00 0.9 C 94 % 0.05 C
1468 27-02-2021 02:15:00 0.9 C 94 % 0.05 C
1469 27-02-2021 02:20:00 0.9 C 94 % 0.05 C
1470 27-02-2021 02:25:00 0.9 C 94 % 0.05 C
1471 27-02-2021 02:30:00 0.9 C 94 % 0.05 C
1472 27-02-2021 02:35:00 0.8 C 94 % -0.05 C
1473 27-02-2021 02:40:00 0.8 C 94 % -0.05 C
1474 27-02-2021 02:45:00 0.7 C 94 % -0.15 C
1475 27-02-2021 02:50:00 0.7 C 94 % -0.15 C
Sensor: Nr:Datum:Temp:Feuchte:Taupunkt:
Aussen-T/F 1476 27-02-2021 02:55:00 0.7 C 94 % -0.15 C
1477 27-02-2021 03:00:00 0.7 C 95 % -0.01 C
1478 27-02-2021 03:05:00 0.7 C 95 % -0.01 C
1479 27-02-2021 03:10:00 0.7 C 95 % -0.01 C
1480 27-02-2021 03:15:00 0.6 C 95 % -0.11 C
1481 27-02-2021 03:20:00 0.6 C 94 % -0.25 C
1482 27-02-2021 03:25:00 0.5 C 94 % -0.35 C
1483 27-02-2021 03:30:00 0.4 C 94 % -0.45 C
1484 27-02-2021 03:35:00 0.3 C 94 % -0.55 C
1485 27-02-2021 03:40:00 0.3 C 95 % -0.4 C
1486 27-02-2021 03:45:00 0.3 C 95 % -0.4 C
1487 27-02-2021 03:50:00 0.3 C 95 % -0.4 C
1488 27-02-2021 03:55:00 0.2 C 95 % -0.5 C
1489 27-02-2021 04:00:00 0.2 C 95 % -0.5 C
1490 27-02-2021 04:05:00 0.2 C 95 % -0.5 C
1491 27-02-2021 04:10:00 0.1 C 95 % -0.6 C
1492 27-02-2021 04:15:00 0.1 C 95 % -0.6 C
1493 27-02-2021 04:20:00 0.1 C 95 % -0.6 C
1494 27-02-2021 04:25:00 0.1 C 95 % -0.6 C
1495 27-02-2021 04:30:00 0.1 C 95 % -0.6 C
1496 27-02-2021 04:35:00 0 C 95 % -0.7 C
1497 27-02-2021 04:40:00 -0.1 C 95 % -0.8 C
1498 27-02-2021 04:45:00 -0.1 C 95 % -0.8 C
1499 27-02-2021 04:50:00 -0.1 C 95 % -0.8 C
1500 27-02-2021 04:55:00 -0.1 C 95 % -0.8 C
Sensor: Nr:Datum:Temp:Feuchte:Taupunkt:
Aussen-T/F 1501 27-02-2021 05:00:00 0 C 95 % -0.7 C
1502 27-02-2021 05:05:00 -0.1 C 95 % -0.8 C
1503 27-02-2021 05:10:00 -0.1 C 95 % -0.8 C
1504 27-02-2021 05:15:00 -0.1 C 95 % -0.8 C
1505 27-02-2021 05:20:00 -0.1 C 95 % -0.8 C
1506 27-02-2021 05:25:00 -0.2 C 95 % -0.9 C
1507 27-02-2021 05:30:00 -0.2 C 95 % -0.9 C
1508 27-02-2021 05:35:00 -0.2 C 95 % -0.9 C
1509 27-02-2021 05:40:00 -0.2 C 95 % -0.9 C
1510 27-02-2021 05:45:00 -0.3 C 95 % -1 C
1511 27-02-2021 05:50:00 -0.3 C 95 % -1 C
1512 27-02-2021 05:55:00 -0.3 C 95 % -1 C
1513 27-02-2021 06:00:00 -0.3 C 95 % -1 C
1514 27-02-2021 06:05:00 -0.3 C 95 % -1 C
1515 27-02-2021 06:10:00 -0.3 C 95 % -1 C
1516 27-02-2021 06:15:00 -0.3 C 95 % -1 C
1517 27-02-2021 06:20:00 -0.3 C 95 % -1 C
1518 27-02-2021 06:25:00 -0.4 C 95 % -1.1 C
1519 27-02-2021 06:30:00 -0.4 C 95 % -1.1 C
1520 27-02-2021 06:35:00 -0.4 C 95 % -1.1 C
1521 27-02-2021 06:40:00 -0.5 C 95 % -1.2 C
1522 27-02-2021 06:45:00 -0.5 C 95 % -1.2 C
1523 27-02-2021 06:50:00 -0.6 C 95 % -1.3 C
1524 27-02-2021 06:55:00 -0.6 C 95 % -1.3 C
1525 27-02-2021 07:00:00 -0.6 C 95 % -1.3 C
Sensor: Nr:Datum:Temp:Feuchte:Taupunkt:
Aussen-T/F 1526 27-02-2021 07:05:00 -0.6 C 95 % -1.3 C
1527 27-02-2021 07:10:00 -0.6 C 95 % -1.3 C
1528 27-02-2021 07:15:00 -0.5 C 95 % -1.2 C
1529 27-02-2021 07:20:00 -0.4 C 95 % -1.1 C
1530 27-02-2021 07:25:00 -0.3 C 96 % -0.86 C
1531 27-02-2021 07:30:00 -0.2 C 96 % -0.76 C
1532 27-02-2021 07:35:00 -0.1 C 96 % -0.66 C
1533 27-02-2021 07:40:00 0 C 96 % -0.56 C
1534 27-02-2021 07:45:00 0.2 C 96 % -0.36 C
1535 27-02-2021 07:50:00 0.3 C 96 % -0.26 C
1536 27-02-2021 07:55:00 0.5 C 96 % -0.06 C
1537 27-02-2021 08:00:00 0.7 C 96 % 0.14 C
1538 27-02-2021 08:05:00 0.7 C 96 % 0.14 C
1539 27-02-2021 08:10:00 0.8 C 96 % 0.24 C
1540 27-02-2021 08:15:00 0.9 C 96 % 0.34 C
1541 27-02-2021 08:20:00 1 C 96 % 0.44 C
1542 27-02-2021 08:25:00 1.2 C 96 % 0.63 C
1543 27-02-2021 08:30:00 1.3 C 96 % 0.73 C
1544 27-02-2021 08:35:00 1.4 C 96 % 0.83 C
1545 27-02-2021 08:40:00 1.6 C 97 % 1.18 C
1546 27-02-2021 08:45:00 1.7 C 96 % 1.13 C
1547 27-02-2021 08:50:00 1.8 C 97 % 1.38 C
1548 27-02-2021 08:55:00 1.9 C 97 % 1.48 C
1549 27-02-2021 09:00:00 2 C 96 % 1.43 C
1550 27-02-2021 09:05:00 2.1 C 96 % 1.53 C
Sensor: Nr:Datum:Temp:Feuchte:Taupunkt:
Aussen-T/F 1551 27-02-2021 09:10:00 2.2 C 97 % 1.77 C
1552 27-02-2021 09:15:00 2.2 C 97 % 1.77 C
1553 27-02-2021 09:20:00 2.3 C 96 % 1.73 C
1554 27-02-2021 09:25:00 2.3 C 96 % 1.73 C
1555 27-02-2021 09:30:00 2.3 C 96 % 1.73 C
1556 27-02-2021 09:35:00 2.4 C 97 % 1.97 C
1557 27-02-2021 09:40:00 2.5 C 96 % 1.93 C
1558 27-02-2021 09:45:00 2.6 C 96 % 2.03 C
1559 27-02-2021 09:50:00 2.7 C 96 % 2.13 C
1560 27-02-2021 09:55:00 2.7 C 97 % 2.27 C
1561 27-02-2021 10:00:00 2.8 C 96 % 2.23 C
1562 27-02-2021 10:05:00 2.8 C 96 % 2.23 C
1563 27-02-2021 10:10:00 2.8 C 96 % 2.23 C
1564 27-02-2021 10:15:00 2.8 C 96 % 2.23 C
1565 27-02-2021 10:20:00 2.9 C 96 % 2.33 C
1566 27-02-2021 10:25:00 3 C 96 % 2.43 C
1567 27-02-2021 10:30:00 3.1 C 96 % 2.53 C
1568 27-02-2021 10:35:00 3.1 C 96 % 2.53 C
1569 27-02-2021 10:40:00 3.2 C 96 % 2.63 C
1570 27-02-2021 10:45:00 3.4 C 96 % 2.82 C
1571 27-02-2021 10:50:00 3.6 C 96 % 3.02 C
1572 27-02-2021 10:55:00 3.7 C 96 % 3.12 C
1573 27-02-2021 11:00:00 3.8 C 96 % 3.22 C
1574 27-02-2021 11:05:00 3.9 C 96 % 3.32 C
1575 27-02-2021 11:10:00 4 C 96 % 3.42 C
Sensor: Nr:Datum:Temp:Feuchte:Taupunkt:
Aussen-T/F 1576 27-02-2021 11:15:00 4 C 96 % 3.42 C
1577 27-02-2021 11:20:00 4.1 C 96 % 3.52 C
1578 27-02-2021 11:25:00 4.3 C 96 % 3.72 C
1579 27-02-2021 11:30:00 4.4 C 96 % 3.82 C
1580 27-02-2021 11:35:00 4.4 C 94 % 3.52 C
1581 27-02-2021 11:40:00 4.6 C 94 % 3.72 C
1582 27-02-2021 11:45:00 4.7 C 94 % 3.82 C
1583 27-02-2021 11:50:00 4.8 C 93 % 3.77 C
1584 27-02-2021 11:55:00 4.8 C 93 % 3.77 C
1585 27-02-2021 12:00:00 4.9 C 93 % 3.87 C
1586 27-02-2021 12:05:00 5.1 C 93 % 4.06 C
1587 27-02-2021 12:10:00 5.2 C 92 % 4.01 C
1588 27-02-2021 12:15:00 5.4 C 91 % 4.05 C
1589 27-02-2021 12:20:00 5.7 C 91 % 4.35 C
1590 27-02-2021 12:25:00 5.9 C 90 % 4.39 C
1591 27-02-2021 12:30:00 6.2 C 89 % 4.53 C
1592 27-02-2021 12:35:00 6.6 C 89 % 4.92 C
1593 27-02-2021 12:40:00 6.8 C 87 % 4.79 C
1594 27-02-2021 12:45:00 7.1 C 86 % 4.92 C
1595 27-02-2021 12:50:00 7.3 C 85 % 4.95 C
1596 27-02-2021 12:55:00 7.6 C 84 % 5.07 C
1597 27-02-2021 13:00:00 7.7 C 83 % 5 C
1598 27-02-2021 13:05:00 7.9 C 81 % 4.85 C
1599 27-02-2021 13:10:00 7.9 C 78 % 4.31 C
1600 27-02-2021 13:15:00 8.1 C 79 % 4.68 C
Sensor: Nr:Datum:Temp:Feuchte:Taupunkt:
Aussen-T/F 1601 27-02-2021 13:20:00 8.3 C 79 % 4.88 C
1602 27-02-2021 13:25:00 8.4 C 76 % 4.42 C
1603 27-02-2021 13:30:00 8.3 C 76 % 4.33 C
1604 27-02-2021 13:35:00 8.3 C 78 % 4.7 C
1605 27-02-2021 13:40:00 8.4 C 77 % 4.61 C
1606 27-02-2021 13:45:00 8.6 C 77 % 4.8 C
1607 27-02-2021 13:50:00 8.7 C 75 % 4.52 C
1608 27-02-2021 13:55:00 8.9 C 74 % 4.53 C
1609 27-02-2021 14:00:00 9 C 73 % 4.43 C
1610 27-02-2021 14:05:00 9.1 C 74 % 4.72 C
1611 27-02-2021 14:10:00 9.2 C 73 % 4.62 C
1612 27-02-2021 14:15:00 9.4 C 73 % 4.81 C
1613 27-02-2021 14:20:00 9.5 C 71 % 4.51 C
1614 27-02-2021 14:25:00 9.6 C 71 % 4.61 C
1615 27-02-2021 14:30:00 9.5 C 70 % 4.31 C
1616 27-02-2021 14:35:00 9.4 C 71 % 4.42 C
1617 27-02-2021 14:40:00 9.4 C 70 % 4.21 C
1618 27-02-2021 14:45:00 9.4 C 71 % 4.42 C
1619 27-02-2021 14:50:00 9.4 C 70 % 4.21 C
1620 27-02-2021 14:55:00 9.4 C 69 % 4.01 C
1621 27-02-2021 15:00:00 9.5 C 70 % 4.31 C
1622 27-02-2021 15:05:00 9.6 C 69 % 4.2 C
1623 27-02-2021 15:10:00 9.7 C 70 % 4.5 C
1624 27-02-2021 15:15:00 9.8 C 69 % 4.39 C
1625 27-02-2021 15:20:00 9.8 C 67 % 3.97 C
Sensor: Nr:Datum:Temp:Feuchte:Taupunkt:
Aussen-T/F 1626 27-02-2021 15:25:00 9.7 C 68 % 4.09 C
1627 27-02-2021 15:30:00 9.7 C 68 % 4.09 C
1628 27-02-2021 15:35:00 9.8 C 68 % 4.18 C
1629 27-02-2021 15:40:00 10.1 C 68 % 4.47 C
1630 27-02-2021 15:45:00 10.2 C 67 % 4.36 C
1631 27-02-2021 15:50:00 10.2 C 67 % 4.36 C
1632 27-02-2021 15:55:00 10.2 C 66 % 4.14 C
1633 27-02-2021 16:00:00 10.2 C 66 % 4.14 C
1634 27-02-2021 16:05:00 10.3 C 66 % 4.24 C
1635 27-02-2021 16:10:00 10.3 C 66 % 4.24 C
1636 27-02-2021 16:15:00 10.4 C 65 % 4.11 C
1637 27-02-2021 16:20:00 10.6 C 65 % 4.3 C
1638 27-02-2021 16:25:00 10.7 C 64 % 4.18 C
1639 27-02-2021 16:30:00 10.7 C 64 % 4.18 C
1640 27-02-2021 16:35:00 10.7 C 63 % 3.95 C
1641 27-02-2021 16:40:00 10.8 C 63 % 4.05 C
1642 27-02-2021 16:45:00 10.8 C 63 % 4.05 C
1643 27-02-2021 16:50:00 10.8 C 63 % 4.05 C
1644 27-02-2021 16:55:00 10.8 C 63 % 4.05 C
1645 27-02-2021 17:00:00 10.9 C 63 % 4.14 C
1646 27-02-2021 17:05:00 10.9 C 63 % 4.14 C
1647 27-02-2021 17:10:00 11.1 C 63 % 4.33 C
1648 27-02-2021 17:15:00 11.1 C 63 % 4.33 C
1649 27-02-2021 17:20:00 11.1 C 64 % 4.56 C
1650 27-02-2021 17:25:00 11.3 C 67 % 5.4 C
Sensor: Nr:Datum:Temp:Feuchte:Taupunkt:
Aussen-T/F 1651 27-02-2021 17:30:00 11.2 C 66 % 5.09 C
1652 27-02-2021 17:35:00 11.1 C 67 % 5.21 C
1653 27-02-2021 17:40:00 10.9 C 68 % 5.23 C
1654 27-02-2021 17:45:00 10.7 C 69 % 5.25 C
1655 27-02-2021 17:50:00 10.3 C 70 % 5.08 C
1656 27-02-2021 17:55:00 9.8 C 71 % 4.8 C
1657 27-02-2021 18:00:00 9.3 C 73 % 4.72 C
1658 27-02-2021 18:05:00 8.8 C 74 % 4.43 C
1659 27-02-2021 18:10:00 8.3 C 76 % 4.33 C
1660 27-02-2021 18:15:00 7.9 C 77 % 4.12 C
1661 27-02-2021 18:20:00 7.5 C 78 % 3.92 C
1662 27-02-2021 18:25:00 7.2 C 79 % 3.81 C
1663 27-02-2021 18:30:00 6.8 C 80 % 3.6 C
1664 27-02-2021 18:35:00 6.6 C 81 % 3.58 C
1665 27-02-2021 18:40:00 6.4 C 82 % 3.56 C
1666 27-02-2021 18:45:00 6.2 C 82 % 3.36 C
1667 27-02-2021 18:50:00 6.1 C 82 % 3.26 C
1668 27-02-2021 18:55:00 5.9 C 83 % 3.24 C
1669 27-02-2021 19:00:00 5.7 C 83 % 3.04 C
1670 27-02-2021 19:05:00 5.6 C 84 % 3.12 C
1671 27-02-2021 19:10:00 5.6 C 85 % 3.28 C
1672 27-02-2021 19:15:00 5.4 C 85 % 3.09 C
1673 27-02-2021 19:20:00 5.3 C 85 % 2.99 C
1674 27-02-2021 19:25:00 5.3 C 85 % 2.99 C
1675 27-02-2021 19:30:00 5.2 C 86 % 3.05 C
Sensor: Nr:Datum:Temp:Feuchte:Taupunkt:
Aussen-T/F 1676 27-02-2021 19:35:00 5.1 C 86 % 2.96 C
1677 27-02-2021 19:40:00 5 C 87 % 3.02 C
1678 27-02-2021 19:45:00 4.9 C 87 % 2.92 C
1679 27-02-2021 19:50:00 4.8 C 87 % 2.82 C
1680 27-02-2021 19:55:00 4.8 C 88 % 2.99 C
1681 27-02-2021 20:00:00 4.7 C 88 % 2.89 C
1682 27-02-2021 20:05:00 4.6 C 89 % 2.95 C
1683 27-02-2021 20:10:00 4.5 C 88 % 2.69 C
1684 27-02-2021 20:15:00 4.4 C 89 % 2.75 C
1685 27-02-2021 20:20:00 4.3 C 89 % 2.65 C
1686 27-02-2021 20:25:00 4.2 C 89 % 2.55 C
1687 27-02-2021 20:30:00 4.3 C 90 % 2.81 C
1688 27-02-2021 20:35:00 4.5 C 90 % 3.01 C
1689 27-02-2021 20:40:00 4.7 C 90 % 3.2 C
1690 27-02-2021 20:45:00 4.8 C 89 % 3.14 C
1691 27-02-2021 20:50:00 5.1 C 89 % 3.44 C
1692 27-02-2021 20:55:00 5.4 C 88 % 3.58 C
1693 27-02-2021 21:00:00 5.6 C 87 % 3.61 C
1694 27-02-2021 21:05:00 5.7 C 87 % 3.71 C
1695 27-02-2021 21:10:00 5.9 C 85 % 3.58 C
1696 27-02-2021 21:15:00 5.9 C 85 % 3.58 C
1697 27-02-2021 21:20:00 5.9 C 85 % 3.58 C
1698 27-02-2021 21:25:00 5.9 C 85 % 3.58 C
1699 27-02-2021 21:30:00 5.9 C 85 % 3.58 C
1700 27-02-2021 21:35:00 5.9 C 85 % 3.58 C
Sensor: Nr:Datum:Temp:Feuchte:Taupunkt:
Aussen-T/F 1701 27-02-2021 21:40:00 5.9 C 85 % 3.58 C
1702 27-02-2021 21:45:00 5.9 C 85 % 3.58 C
1703 27-02-2021 21:50:00 5.8 C 85 % 3.48 C
1704 27-02-2021 21:55:00 5.8 C 85 % 3.48 C
1705 27-02-2021 22:00:00 5.9 C 85 % 3.58 C
1706 27-02-2021 22:05:00 5.9 C 85 % 3.58 C
1707 27-02-2021 22:10:00 5.9 C 84 % 3.41 C
1708 27-02-2021 22:15:00 6 C 84 % 3.51 C
1709 27-02-2021 22:20:00 6 C 84 % 3.51 C
1710 27-02-2021 22:25:00 5.9 C 84 % 3.41 C
1711 27-02-2021 22:30:00 5.9 C 83 % 3.24 C
1712 27-02-2021 22:35:00 5.9 C 83 % 3.24 C
1713 27-02-2021 22:40:00 5.9 C 83 % 3.24 C
1714 27-02-2021 22:45:00 5.8 C 83 % 3.14 C
1715 27-02-2021 22:50:00 5.8 C 83 % 3.14 C
1716 27-02-2021 22:55:00 5.8 C 83 % 3.14 C
1717 27-02-2021 23:00:00 5.8 C 83 % 3.14 C
1718 27-02-2021 23:05:00 5.8 C 83 % 3.14 C
1719 27-02-2021 23:10:00 5.8 C 83 % 3.14 C
1720 27-02-2021 23:15:00 5.8 C 83 % 3.14 C
1721 27-02-2021 23:20:00 5.8 C 83 % 3.14 C
1722 27-02-2021 23:25:00 5.8 C 83 % 3.14 C
1723 27-02-2021 23:30:00 5.8 C 83 % 3.14 C
1724 27-02-2021 23:35:00 5.8 C 83 % 3.14 C
1725 27-02-2021 23:40:00 5.8 C 83 % 3.14 C
Sensor: Nr:Datum:Temp:Feuchte:Taupunkt:
Aussen-T/F 1726 27-02-2021 23:45:00 5.8 C 82 % 2.97 C
1727 27-02-2021 23:50:00 5.8 C 83 % 3.14 C
1728 27-02-2021 23:55:00 5.8 C 83 % 3.14 C
1729 28-02-2021 00:00:00 5.8 C 82 % 2.97 C
1730 28-02-2021 00:05:00 5.8 C 82 % 2.97 C
1731 28-02-2021 00:10:00 5.8 C 81 % 2.8 C
1732 28-02-2021 00:15:00 5.8 C 82 % 2.97 C
1733 28-02-2021 00:20:00 5.9 C 82 % 3.07 C
1734 28-02-2021 00:25:00 5.9 C 82 % 3.07 C
1735 28-02-2021 00:30:00 5.9 C 82 % 3.07 C
1736 28-02-2021 00:35:00 5.8 C 81 % 2.8 C
1737 28-02-2021 00:40:00 5.8 C 81 % 2.8 C
1738 28-02-2021 00:45:00 5.8 C 82 % 2.97 C
1739 28-02-2021 00:50:00 5.8 C 82 % 2.97 C
1740 28-02-2021 00:55:00 5.8 C 81 % 2.8 C
1741 28-02-2021 01:00:00 5.8 C 81 % 2.8 C
1742 28-02-2021 01:05:00 5.8 C 81 % 2.8 C
1743 28-02-2021 01:10:00 5.8 C 81 % 2.8 C
1744 28-02-2021 01:15:00 5.8 C 81 % 2.8 C
1745 28-02-2021 01:20:00 5.8 C 80 % 2.62 C
1746 28-02-2021 01:25:00 5.8 C 81 % 2.8 C
1747 28-02-2021 01:30:00 5.8 C 80 % 2.62 C
1748 28-02-2021 01:35:00 5.8 C 80 % 2.62 C
1749 28-02-2021 01:40:00 5.8 C 80 % 2.62 C
1750 28-02-2021 01:45:00 5.9 C 79 % 2.54 C
Sensor: Nr:Datum:Temp:Feuchte:Taupunkt:
Aussen-T/F 1751 28-02-2021 01:50:00 5.9 C 80 % 2.72 C
1752 28-02-2021 01:55:00 5.9 C 80 % 2.72 C
1753 28-02-2021 02:00:00 5.8 C 80 % 2.62 C
1754 28-02-2021 02:05:00 5.8 C 80 % 2.62 C
1755 28-02-2021 02:10:00 5.8 C 80 % 2.62 C
1756 28-02-2021 02:15:00 5.7 C 80 % 2.53 C
1757 28-02-2021 02:20:00 5.7 C 80 % 2.53 C
1758 28-02-2021 02:25:00 5.7 C 81 % 2.7 C
1759 28-02-2021 02:30:00 5.7 C 81 % 2.7 C
1760 28-02-2021 02:35:00 5.6 C 81 % 2.6 C
1761 28-02-2021 02:40:00 5.6 C 79 % 2.25 C
1762 28-02-2021 02:45:00 5.6 C 79 % 2.25 C
1763 28-02-2021 02:50:00 5.6 C 80 % 2.43 C
1764 28-02-2021 02:55:00 5.6 C 80 % 2.43 C
1765 28-02-2021 03:00:00 5.6 C 80 % 2.43 C
1766 28-02-2021 03:05:00 5.6 C 79 % 2.25 C
1767 28-02-2021 03:10:00 5.5 C 79 % 2.16 C
1768 28-02-2021 03:15:00 5.5 C 79 % 2.16 C
1769 28-02-2021 03:20:00 5.4 C 79 % 2.06 C
1770 28-02-2021 03:25:00 5.4 C 78 % 1.88 C
1771 28-02-2021 03:30:00 5.4 C 78 % 1.88 C
1772 28-02-2021 03:35:00 5.4 C 77 % 1.7 C
1773 28-02-2021 03:40:00 5.4 C 78 % 1.88 C
1774 28-02-2021 03:45:00 5.4 C 78 % 1.88 C
1775 28-02-2021 03:50:00 5.3 C 78 % 1.78 C
Sensor: Nr:Datum:Temp:Feuchte:Taupunkt:
Aussen-T/F 1776 28-02-2021 03:55:00 5.3 C 78 % 1.78 C
1777 28-02-2021 04:00:00 5.2 C 78 % 1.69 C
1778 28-02-2021 04:05:00 5.2 C 78 % 1.69 C
1779 28-02-2021 04:10:00 5.2 C 78 % 1.69 C
1780 28-02-2021 04:15:00 5.2 C 79 % 1.86 C
1781 28-02-2021 04:20:00 5.1 C 79 % 1.77 C
1782 28-02-2021 04:25:00 5.1 C 80 % 1.94 C
1783 28-02-2021 04:30:00 5 C 80 % 1.84 C
1784 28-02-2021 04:35:00 4.9 C 81 % 1.92 C
1785 28-02-2021 04:40:00 4.9 C 80 % 1.75 C
1786 28-02-2021 04:45:00 5 C 80 % 1.84 C
1787 28-02-2021 04:50:00 5 C 80 % 1.84 C
1788 28-02-2021 04:55:00 5 C 80 % 1.84 C
1789 28-02-2021 05:00:00 4.9 C 81 % 1.92 C
1790 28-02-2021 05:05:00 4.9 C 80 % 1.75 C
1791 28-02-2021 05:10:00 4.9 C 80 % 1.75 C
1792 28-02-2021 05:15:00 5 C 80 % 1.84 C
1793 28-02-2021 05:20:00 5 C 80 % 1.84 C
1794 28-02-2021 05:25:00 5 C 80 % 1.84 C
1795 28-02-2021 05:30:00 4.9 C 81 % 1.92 C
1796 28-02-2021 05:35:00 4.7 C 81 % 1.73 C
1797 28-02-2021 05:40:00 4.6 C 81 % 1.63 C
1798 28-02-2021 05:45:00 4.5 C 81 % 1.53 C
1799 28-02-2021 05:50:00 4.4 C 81 % 1.43 C
1800 28-02-2021 05:55:00 4.3 C 82 % 1.51 C
Sensor: Nr:Datum:Temp:Feuchte:Taupunkt:
Aussen-T/F 1801 28-02-2021 06:00:00 4.3 C 82 % 1.51 C
1802 28-02-2021 06:05:00 4.2 C 83 % 1.58 C
1803 28-02-2021 06:10:00 4.1 C 83 % 1.48 C
1804 28-02-2021 06:15:00 3.9 C 83 % 1.28 C
1805 28-02-2021 06:20:00 3.6 C 83 % 0.99 C
1806 28-02-2021 06:25:00 3.3 C 83 % 0.7 C
1807 28-02-2021 06:30:00 3.1 C 84 % 0.67 C
1808 28-02-2021 06:35:00 2.9 C 84 % 0.47 C
1809 28-02-2021 06:40:00 2.7 C 85 % 0.44 C
1810 28-02-2021 06:45:00 2.6 C 85 % 0.34 C
1811 28-02-2021 06:50:00 2.4 C 85 % 0.14 C
1812 28-02-2021 06:55:00 2.3 C 86 % 0.21 C
1813 28-02-2021 07:00:00 2.2 C 86 % 0.11 C
1814 28-02-2021 07:05:00 2.1 C 87 % 0.17 C
1815 28-02-2021 07:10:00 2 C 87 % 0.07 C
1816 28-02-2021 07:15:00 1.9 C 88 % 0.13 C
1817 28-02-2021 07:20:00 1.8 C 87 % -0.13 C
1818 28-02-2021 07:25:00 1.6 C 87 % -0.32 C
1819 28-02-2021 07:30:00 1.4 C 88 % -0.36 C
1820 28-02-2021 07:35:00 1.3 C 88 % -0.46 C
1821 28-02-2021 07:40:00 1.3 C 89 % -0.31 C
1822 28-02-2021 07:45:00 1.2 C 89 % -0.41 C
1823 28-02-2021 07:50:00 1.1 C 89 % -0.51 C
1824 28-02-2021 07:55:00 1.1 C 90 % -0.35 C
1825 28-02-2021 08:00:00 1 C 90 % -0.45 C
Sensor: Nr:Datum:Temp:Feuchte:Taupunkt:
Aussen-T/F 1826 28-02-2021 08:05:00 1 C 90 % -0.45 C
1827 28-02-2021 08:10:00 0.9 C 90 % -0.55 C
1828 28-02-2021 08:15:00 0.9 C 91 % -0.4 C
1829 28-02-2021 08:20:00 1 C 91 % -0.3 C
1830 28-02-2021 08:25:00 1.1 C 91 % -0.2 C
1831 28-02-2021 08:30:00 1.1 C 91 % -0.2 C
1832 28-02-2021 08:35:00 1.1 C 91 % -0.2 C
1833 28-02-2021 08:40:00 1.2 C 92 % 0.05 C
1834 28-02-2021 08:45:00 1.2 C 92 % 0.05 C
1835 28-02-2021 08:50:00 1.3 C 92 % 0.15 C
1836 28-02-2021 08:55:00 1.3 C 92 % 0.15 C
1837 28-02-2021 09:00:00 1.3 C 92 % 0.15 C
1838 28-02-2021 09:05:00 1.4 C 92 % 0.25 C
1839 28-02-2021 09:10:00 1.4 C 92 % 0.25 C
1840 28-02-2021 09:15:00 1.5 C 92 % 0.35 C
1841 28-02-2021 09:20:00 1.6 C 92 % 0.44 C
1842 28-02-2021 09:25:00 1.6 C 92 % 0.44 C
1843 28-02-2021 09:30:00 1.7 C 92 % 0.54 C
1844 28-02-2021 09:35:00 1.7 C 92 % 0.54 C
1845 28-02-2021 09:40:00 1.8 C 92 % 0.64 C
1846 28-02-2021 09:45:00 1.9 C 92 % 0.74 C
1847 28-02-2021 09:50:00 1.9 C 92 % 0.74 C
1848 28-02-2021 09:55:00 2.1 C 92 % 0.94 C
1849 28-02-2021 10:00:00 2.2 C 92 % 1.04 C
1850 28-02-2021 10:05:00 2.3 C 92 % 1.14 C
Sensor: Nr:Datum:Temp:Feuchte:Taupunkt:
Aussen-T/F 1851 28-02-2021 10:10:00 2.4 C 92 % 1.24 C
1852 28-02-2021 10:15:00 2.7 C 92 % 1.53 C
1853 28-02-2021 10:20:00 3 C 91 % 1.68 C
1854 28-02-2021 10:25:00 3.4 C 90 % 1.92 C
1855 28-02-2021 10:30:00 3.7 C 89 % 2.06 C
1856 28-02-2021 10:35:00 4.1 C 87 % 2.14 C
1857 28-02-2021 10:40:00 4.3 C 86 % 2.17 C
1858 28-02-2021 10:45:00 4.6 C 85 % 2.3 C
1859 28-02-2021 10:50:00 4.8 C 82 % 1.99 C
1860 28-02-2021 10:55:00 5.1 C 83 % 2.46 C
1861 28-02-2021 11:00:00 5.3 C 80 % 2.14 C
1862 28-02-2021 11:05:00 5.7 C 79 % 2.35 C
1863 28-02-2021 11:10:00 5.9 C 78 % 2.37 C
1864 28-02-2021 11:15:00 6.2 C 76 % 2.29 C
1865 28-02-2021 11:20:00 6.4 C 76 % 2.49 C
1866 28-02-2021 11:25:00 6.6 C 75 % 2.49 C
1867 28-02-2021 11:30:00 6.7 C 75 % 2.59 C
1868 28-02-2021 11:35:00 6.9 C 74 % 2.6 C
1869 28-02-2021 11:40:00 7.1 C 71 % 2.21 C
1870 28-02-2021 11:45:00 7.2 C 71 % 2.3 C
1871 28-02-2021 11:50:00 7.3 C 71 % 2.4 C
1872 28-02-2021 11:55:00 7.4 C 71 % 2.5 C
1873 28-02-2021 12:00:00 7.5 C 69 % 2.19 C
1874 28-02-2021 12:05:00 7.7 C 70 % 2.58 C
1875 28-02-2021 12:10:00 7.8 C 70 % 2.68 C
Sensor: Nr:Datum:Temp:Feuchte:Taupunkt:
Aussen-T/F 1876 28-02-2021 12:15:00 7.9 C 68 % 2.37 C
1877 28-02-2021 12:20:00 8.2 C 68 % 2.66 C
1878 28-02-2021 12:25:00 8.3 C 68 % 2.75 C
1879 28-02-2021 12:30:00 8.6 C 66 % 2.62 C
1880 28-02-2021 12:35:00 8.7 C 66 % 2.71 C
1881 28-02-2021 12:40:00 8.8 C 65 % 2.59 C
1882 28-02-2021 12:45:00 8.8 C 64 % 2.38 C
1883 28-02-2021 12:50:00 8.9 C 65 % 2.69 C
1884 28-02-2021 12:55:00 8.9 C 65 % 2.69 C
1885 28-02-2021 13:00:00 9.1 C 65 % 2.88 C
1886 28-02-2021 13:05:00 9.2 C 65 % 2.97 C
1887 28-02-2021 13:10:00 9.3 C 64 % 2.85 C
1888 28-02-2021 13:15:00 9.5 C 63 % 2.82 C
1889 28-02-2021 13:20:00 9.6 C 63 % 2.91 C
1890 28-02-2021 13:25:00 9.8 C 63 % 3.1 C
1891 28-02-2021 13:30:00 9.9 C 61 % 2.74 C
1892 28-02-2021 13:35:00 10.1 C 61 % 2.93 C
1893 28-02-2021 13:40:00 10.2 C 60 % 2.79 C
1894 28-02-2021 13:45:00 10.4 C 60 % 2.98 C
1895 28-02-2021 13:50:00 10.6 C 60 % 3.17 C
1896 28-02-2021 13:55:00 10.8 C 59 % 3.12 C
1897 28-02-2021 14:00:00 11.1 C 57 % 2.92 C
1898 28-02-2021 14:05:00 11.3 C 55 % 2.6 C
1899 28-02-2021 14:10:00 11.4 C 55 % 2.69 C
1900 28-02-2021 14:15:00 11.5 C 55 % 2.79 C
Sensor: Nr:Datum:Temp:Feuchte:Taupunkt:
Aussen-T/F 1901 28-02-2021 14:20:00 11.4 C 54 % 2.44 C
1902 28-02-2021 14:25:00 11.3 C 53 % 2.08 C
1903 28-02-2021 14:30:00 11.3 C 52 % 1.81 C
1904 28-02-2021 14:35:00 11.2 C 52 % 1.72 C
1905 28-02-2021 14:40:00 11.3 C 54 % 2.34 C
1906 28-02-2021 14:45:00 11.3 C 53 % 2.08 C
1907 28-02-2021 14:50:00 11.3 C 52 % 1.81 C
1908 28-02-2021 14:55:00 11.3 C 54 % 2.34 C
1909 28-02-2021 15:00:00 11.3 C 51 % 1.54 C
1910 28-02-2021 15:05:00 11.4 C 51 % 1.64 C
1911 28-02-2021 15:10:00 11.4 C 52 % 1.91 C
1912 28-02-2021 15:15:00 11.5 C 50 % 1.45 C
1913 28-02-2021 15:20:00 11.5 C 51 % 1.73 C
1914 28-02-2021 15:25:00 11.5 C 55 % 2.79 C
1915 28-02-2021 15:30:00 11.6 C 51 % 1.82 C
1916 28-02-2021 15:35:00 11.7 C 51 % 1.91 C
1917 28-02-2021 15:40:00 11.8 C 48 % 1.16 C
1918 28-02-2021 15:45:00 11.8 C 48 % 1.16 C
1919 28-02-2021 15:50:00 12 C 49 % 1.63 C
1920 28-02-2021 15:55:00 12.1 C 48 % 1.44 C
1921 28-02-2021 16:00:00 12.2 C 49 % 1.82 C
1922 28-02-2021 16:05:00 12.3 C 48 % 1.62 C
1923 28-02-2021 16:10:00 12.3 C 48 % 1.62 C
1924 28-02-2021 16:15:00 12.3 C 47 % 1.33 C
1925 28-02-2021 16:20:00 12.4 C 52 % 2.83 C
Sensor: Nr:Datum:Temp:Feuchte:Taupunkt:
Aussen-T/F 1926 28-02-2021 16:25:00 12.4 C 49 % 2 C
1927 28-02-2021 16:30:00 12.4 C 48 % 1.71 C
1928 28-02-2021 16:35:00 12.4 C 49 % 2 C
1929 28-02-2021 16:40:00 12.4 C 45 % 0.81 C
1930 28-02-2021 16:45:00 12.4 C 44 % 0.5 C
1931 28-02-2021 16:50:00 12.4 C 51 % 2.56 C
1932 28-02-2021 16:55:00 12.3 C 49 % 1.91 C
1933 28-02-2021 17:00:00 12.3 C 50 % 2.19 C
1934 28-02-2021 17:05:00 12.4 C 51 % 2.56 C
1935 28-02-2021 17:10:00 12.4 C 54 % 3.36 C
1936 28-02-2021 17:15:00 12.4 C 55 % 3.62 C
1937 28-02-2021 17:20:00 12.5 C 51 % 2.65 C
1938 28-02-2021 17:25:00 12.5 C 53 % 3.19 C
1939 28-02-2021 17:30:00 12.4 C 56 % 3.88 C
1940 28-02-2021 17:35:00 12.2 C 56 % 3.69 C
1941 28-02-2021 17:40:00 11.9 C 58 % 3.91 C
1942 28-02-2021 17:45:00 11.5 C 58 % 3.54 C
1943 28-02-2021 17:50:00 11.1 C 59 % 3.4 C
1944 28-02-2021 17:55:00 10.5 C 60 % 3.08 C
1945 28-02-2021 18:00:00 9.9 C 62 % 2.97 C
1946 28-02-2021 18:05:00 9.4 C 63 % 2.72 C
1947 28-02-2021 18:10:00 8.9 C 65 % 2.69 C
1948 28-02-2021 18:15:00 8.4 C 66 % 2.43 C
1949 28-02-2021 18:20:00 8 C 68 % 2.47 C
1950 28-02-2021 18:25:00 7.6 C 69 % 2.29 C
Sensor: Nr:Datum:Temp:Feuchte:Taupunkt:
Aussen-T/F 1951 28-02-2021 18:30:00 7.3 C 70 % 2.2 C
1952 28-02-2021 18:35:00 7.1 C 71 % 2.21 C
1953 28-02-2021 18:40:00 6.8 C 72 % 2.12 C
1954 28-02-2021 18:45:00 6.6 C 72 % 1.92 C
1955 28-02-2021 18:50:00 6.4 C 73 % 1.92 C
1956 28-02-2021 18:55:00 6.3 C 74 % 2.02 C
1957 28-02-2021 19:00:00 6.2 C 74 % 1.92 C
1958 28-02-2021 19:05:00 6 C 75 % 1.91 C
1959 28-02-2021 19:10:00 5.9 C 75 % 1.82 C
1960 28-02-2021 19:15:00 5.8 C 76 % 1.91 C
1961 28-02-2021 19:20:00 5.7 C 76 % 1.81 C
1962 28-02-2021 19:25:00 5.6 C 77 % 1.89 C
1963 28-02-2021 19:30:00 5.5 C 77 % 1.8 C
1964 28-02-2021 19:35:00 5.4 C 78 % 1.88 C
1965 28-02-2021 19:40:00 5.3 C 78 % 1.78 C
1966 28-02-2021 19:45:00 5.2 C 79 % 1.86 C
1967 28-02-2021 19:50:00 5.2 C 79 % 1.86 C
1968 28-02-2021 19:55:00 5.1 C 80 % 1.94 C
1969 28-02-2021 20:00:00 4.9 C 80 % 1.75 C
1970 28-02-2021 20:05:00 4.8 C 81 % 1.82 C
1971 28-02-2021 20:10:00 4.8 C 81 % 1.82 C
1972 28-02-2021 20:15:00 4.7 C 81 % 1.73 C
1973 28-02-2021 20:20:00 4.6 C 82 % 1.8 C
1974 28-02-2021 20:25:00 4.5 C 82 % 1.7 C
1975 28-02-2021 20:30:00 4.4 C 82 % 1.6 C
Sensor: Nr:Datum:Temp:Feuchte:Taupunkt:
Aussen-T/F 1976 28-02-2021 20:35:00 4.3 C 83 % 1.67 C
1977 28-02-2021 20:40:00 4.2 C 83 % 1.58 C
1978 28-02-2021 20:45:00 4.1 C 83 % 1.48 C
1979 28-02-2021 20:50:00 4 C 84 % 1.55 C
1980 28-02-2021 20:55:00 3.8 C 84 % 1.35 C
1981 28-02-2021 21:00:00 3.8 C 84 % 1.35 C
1982 28-02-2021 21:05:00 3.6 C 84 % 1.16 C
1983 28-02-2021 21:10:00 3.4 C 84 % 0.96 C
1984 28-02-2021 21:15:00 3.3 C 85 % 1.03 C
1985 28-02-2021 21:20:00 3.2 C 85 % 0.93 C
1986 28-02-2021 21:25:00 3.1 C 86 % 0.99 C
1987 28-02-2021 21:30:00 2.9 C 87 % 0.96 C
1988 28-02-2021 21:35:00 2.9 C 87 % 0.96 C
1989 28-02-2021 21:40:00 2.9 C 88 % 1.11 C
1990 28-02-2021 21:45:00 2.9 C 88 % 1.11 C
1991 28-02-2021 21:50:00 2.9 C 88 % 1.11 C
1992 28-02-2021 21:55:00 2.8 C 88 % 1.02 C
1993 28-02-2021 22:00:00 2.7 C 88 % 0.92 C
1994 28-02-2021 22:05:00 2.6 C 88 % 0.82 C
1995 28-02-2021 22:10:00 2.6 C 89 % 0.97 C
1996 28-02-2021 22:15:00 2.5 C 89 % 0.88 C
1997 28-02-2021 22:20:00 2.4 C 89 % 0.78 C
1998 28-02-2021 22:25:00 2.3 C 89 % 0.68 C
1999 28-02-2021 22:30:00 2.3 C 89 % 0.68 C
2000 28-02-2021 22:35:00 2.1 C 89 % 0.48 C
Sensor: Nr:Datum:Temp:Feuchte:Taupunkt:
Aussen-T/F 2001 28-02-2021 22:40:00 2.1 C 89 % 0.48 C
2002 28-02-2021 22:45:00 2 C 89 % 0.38 C
2003 28-02-2021 22:50:00 1.9 C 89 % 0.28 C
2004 28-02-2021 22:55:00 1.8 C 89 % 0.19 C
2005 28-02-2021 23:00:00 1.7 C 90 % 0.24 C
2006 28-02-2021 23:05:00 1.6 C 90 % 0.14 C
2007 28-02-2021 23:10:00 1.4 C 90 % -0.06 C
2008 28-02-2021 23:15:00 1.3 C 90 % -0.15 C
2009 28-02-2021 23:20:00 1.3 C 90 % -0.15 C
2010 28-02-2021 23:25:00 1.2 C 91 % -0.1 C
2011 28-02-2021 23:30:00 1.2 C 91 % -0.1 C
2012 28-02-2021 23:35:00 1.1 C 91 % -0.2 C
2013 28-02-2021 23:40:00 1.1 C 91 % -0.2 C
2014 28-02-2021 23:45:00 1 C 91 % -0.3 C
2015 28-02-2021 23:50:00 1 C 91 % -0.3 C
2016 28-02-2021 23:55:00 1 C 92 % -0.15 C

Legende:
   Min
   Max


Maximal/Minimal-Werte vom 22.02.2021 - 28.02.2021

Sensor Min Max Avg
Temp
(Aussen-T/F)
-0.6 °C
27-02-2021  06:50:00
20.3 °C
25-02-2021  14:30:00
7.85 °C
Feuchte
(Aussen-T/F)
44 %
28-02-2021  16:45:00
98 %
24-02-2021  11:25:00
84.12 %
Taupunkt
(Aussen-T/F)
-1.3 C
27-02-2021  06:50:00
12.73 C
24-02-2021  12:45:00
5.1 C

Die Daten stammen von einer Davis Vantage Pro 2 Wetter-Station und werden unter Linux mit der Software wview2wettercgi und aufbereitet. Alle Angaben erfolgen ohne Gewähr für ihre Vollständigkeit oder Richtigkeit.
Kontakt: Rainer Krienke krienke@uni-koblenz.de . Meine Webseiten an der Uni Koblenz oder privat.
Version: $Revision: 0.78 $